Time,TemperatureF,DewpointF,PressureIn,WindDirection,WindDirectionDegrees,WindSpeedMPH,WindSpeedGustMPH,Humidity,HourlyPrecipIn,Conditions,Clouds,dailyrainin,SoftwareType,DateUTC
2013-04-12 00:00:00,54.6,49.2,29.84,ESE,113,0.0,0.0,82,0.00,,---,0.00,VWS V14.00,2013-04-12 05:00:00,
2013-04-12 00:01:00,54.6,49.2,29.84,ESE,113,0.0,0.0,82,0.00,,---,0.00,VWS V14.00,2013-04-12 05:01:00,
2013-04-12 00:02:00,54.6,49.2,29.84,ESE,113,0.0,0.0,82,0.00,,---,0.00,VWS V14.00,2013-04-12 05:02:00,
2013-04-12 00:03:00,54.6,49.2,29.84,ESE,113,0.0,0.0,82,0.00,,---,0.00,VWS V14.00,2013-04-12 05:03:00,
2013-04-12 00:04:00,54.6,49.2,29.84,ESE,113,0.0,0.0,82,0.00,,---,0.00,VWS V14.00,2013-04-12 05:04:00,
2013-04-12 00:05:00,54.5,49.1,29.84,ESE,113,0.0,0.0,82,0.00,,---,0.00,VWS V14.00,2013-04-12 05:05:00,
2013-04-12 00:06:00,54.5,49.1,29.84,ESE,113,0.0,0.0,82,0.00,,---,0.00,VWS V14.00,2013-04-12 05:06:00,
2013-04-12 00:07:00,54.5,49.1,29.84,ESE,113,0.0,0.0,82,0.00,,---,0.00,VWS V14.00,2013-04-12 05:07:00,
2013-04-12 00:08:00,54.5,49.1,29.84,ESE,113,0.0,0.0,82,0.00,,---,0.00,VWS V14.00,2013-04-12 05:08:00,
2013-04-12 00:09:00,54.4,49.0,29.84,ESE,113,0.0,0.0,82,0.00,,---,0.00,VWS V14.00,2013-04-12 05:09:00,
2013-04-12 00:10:00,54.3,48.9,29.84,ESE,113,0.0,0.0,82,0.00,,---,0.00,VWS V14.00,2013-04-12 05:10:00,
2013-04-12 00:11:00,54.4,49.0,29.84,ESE,113,0.0,0.0,82,0.00,,---,0.00,VWS V14.00,2013-04-12 05:11:00,
2013-04-12 00:12:00,54.3,48.9,29.84,ESE,113,0.0,0.0,82,0.00,,---,0.00,VWS V14.00,2013-04-12 05:12:00,
2013-04-12 00:13:00,54.3,48.9,29.84,ESE,113,0.0,0.0,82,0.00,,---,0.00,VWS V14.00,2013-04-12 05:13:00,
2013-04-12 00:14:00,54.3,48.9,29.84,ESE,113,0.0,0.0,82,0.00,,---,0.00,VWS V14.00,2013-04-12 05:14:00,
2013-04-12 00:15:00,54.2,49.2,29.84,ESE,113,0.0,0.0,83,0.00,,---,0.00,VWS V14.00,2013-04-12 05:15:00,
2013-04-12 00:16:00,54.2,49.2,29.84,ESE,113,0.0,0.0,83,0.00,,---,0.00,VWS V14.00,2013-04-12 05:16:00,
2013-04-12 00:17:00,54.2,49.2,29.84,ESE,113,0.0,0.0,83,0.00,,---,0.00,VWS V14.00,2013-04-12 05:17:00,
2013-04-12 00:18:00,54.2,49.2,29.84,ESE,113,0.0,0.0,83,0.00,,---,0.00,VWS V14.00,2013-04-12 05:18:00,
2013-04-12 00:19:00,54.2,49.2,29.84,ESE,113,0.0,0.0,83,0.00,,---,0.00,VWS V14.00,2013-04-12 05:19:00,
2013-04-12 00:20:00,54.2,49.2,29.84,ESE,113,0.0,0.0,83,0.00,,---,0.00,VWS V14.00,2013-04-12 05:20:00,
2013-04-12 00:21:00,54.2,49.2,29.84,ESE,113,0.0,0.0,83,0.00,,---,0.00,VWS V14.00,2013-04-12 05:21:00,
2013-04-12 00:22:00,54.2,49.2,29.84,ESE,113,0.0,0.0,83,0.00,,---,0.00,VWS V14.00,2013-04-12 05:22:00,
2013-04-12 00:23:00,54.2,49.2,29.84,ESE,113,0.0,0.0,83,0.00,,---,0.00,VWS V14.00,2013-04-12 05:23:00,
2013-04-12 00:24:00,54.2,49.2,29.84,ESE,113,0.0,0.0,83,0.00,,---,0.00,VWS V14.00,2013-04-12 05:24:00,
2013-04-12 00:25:00,54.1,49.1,29.84,ESE,113,0.0,0.0,83,0.00,,---,0.00,VWS V14.00,2013-04-12 05:25:00,
2013-04-12 00:26:00,54.2,49.2,29.84,ESE,113,0.0,0.0,83,0.00,,---,0.00,VWS V14.00,2013-04-12 05:26:00,
2013-04-12 00:27:00,54.2,49.2,29.84,ESE,113,0.0,0.0,83,0.00,,---,0.00,VWS V14.00,2013-04-12 05:27:00,
2013-04-12 00:28:00,54.1,49.1,29.84,ESE,113,0.0,0.0,83,0.00,,---,0.00,VWS V14.00,2013-04-12 05:28:00,
2013-04-12 00:29:00,54.1,49.1,29.84,ESE,113,0.0,0.0,83,0.00,,---,0.00,VWS V14.00,2013-04-12 05:29:00,
2013-04-12 00:30:00,54.2,49.5,29.84,ESE,113,0.0,0.0,84,0.00,,---,0.00,VWS V14.00,2013-04-12 05:30:00,
2013-04-12 00:31:00,54.2,49.2,29.84,ESE,113,0.0,0.0,83,0.00,,---,0.00,VWS V14.00,2013-04-12 05:31:00,
2013-04-12 00:32:00,54.2,49.2,29.84,ESE,113,0.0,0.0,83,0.00,,---,0.00,VWS V14.00,2013-04-12 05:32:00,
2013-04-12 00:33:00,54.2,49.5,29.84,ESE,113,0.0,0.0,84,0.00,,---,0.00,VWS V14.00,2013-04-12 05:33:00,
2013-04-12 00:34:00,54.2,49.5,29.84,ESE,113,0.0,0.0,84,0.00,,---,0.00,VWS V14.00,2013-04-12 05:34:00,
2013-04-12 00:35:00,54.2,49.2,29.84,ESE,113,0.0,0.0,83,0.00,,---,0.00,VWS V14.00,2013-04-12 05:35:00,
2013-04-12 00:36:00,54.2,49.2,29.84,ESE,113,0.0,0.0,83,0.00,,---,0.00,VWS V14.00,2013-04-12 05:36:00,
2013-04-12 00:37:00,54.2,49.2,29.84,ESE,113,0.0,0.0,83,0.00,,---,0.00,VWS V14.00,2013-04-12 05:37:00,
2013-04-12 00:38:00,54.1,49.1,29.84,ESE,113,0.0,0.0,83,0.00,,---,0.00,VWS V14.00,2013-04-12 05:38:00,
2013-04-12 00:39:00,54.1,49.4,29.84,ESE,113,0.0,0.0,84,0.00,,---,0.00,VWS V14.00,2013-04-12 05:39:00,
2013-04-12 00:40:00,54.1,49.4,29.84,ESE,113,0.0,0.0,84,0.00,,---,0.00,VWS V14.00,2013-04-12 05:40:00,
2013-04-12 00:41:00,54.1,49.4,29.84,ESE,113,0.0,0.0,84,0.00,,---,0.00,VWS V14.00,2013-04-12 05:41:00,
2013-04-12 00:42:00,54.1,49.4,29.84,ESE,113,0.0,0.0,84,0.00,,---,0.00,VWS V14.00,2013-04-12 05:42:00,
2013-04-12 00:43:00,54.1,49.4,29.84,ESE,113,0.0,0.0,84,0.00,,---,0.00,VWS V14.00,2013-04-12 05:43:00,
2013-04-12 00:44:00,54.1,49.4,29.84,ESE,113,0.0,0.0,84,0.00,,---,0.00,VWS V14.00,2013-04-12 05:44:00,
2013-04-12 00:45:00,54.0,49.3,29.84,ESE,113,0.0,0.0,84,0.00,,---,0.00,VWS V14.00,2013-04-12 05:45:00,
2013-04-12 00:46:00,54.1,49.4,29.84,ESE,113,0.0,0.0,84,0.00,,---,0.00,VWS V14.00,2013-04-12 05:46:00,
2013-04-12 00:47:00,54.0,49.3,29.84,ESE,113,0.0,0.0,84,0.00,,---,0.00,VWS V14.00,2013-04-12 05:47:00,
2013-04-12 00:48:00,54.0,49.3,29.84,ESE,113,0.0,0.0,84,0.00,,---,0.00,VWS V14.00,2013-04-12 05:48:00,
2013-04-12 00:49:00,54.0,49.3,29.84,ESE,113,0.0,0.0,84,0.00,,---,0.00,VWS V14.00,2013-04-12 05:49:00,
2013-04-12 00:50:00,53.7,49.0,29.84,ESE,113,0.0,0.0,84,0.00,,---,0.00,VWS V14.00,2013-04-12 05:50:00,
2013-04-12 00:51:00,53.9,48.9,29.84,ESE,113,0.0,0.0,83,0.00,,---,0.00,VWS V14.00,2013-04-12 05:51:00,
2013-04-12 00:52:00,53.8,48.8,29.84,ESE,113,0.0,0.0,83,0.00,,---,0.00,VWS V14.00,2013-04-12 05:52:00,
2013-04-12 00:53:00,53.7,49.0,29.84,ESE,113,0.0,0.0,84,0.00,,---,0.00,VWS V14.00,2013-04-12 05:53:00,
2013-04-12 00:54:00,53.7,49.0,29.84,ESE,113,0.0,0.0,84,0.00,,---,0.00,VWS V14.00,2013-04-12 05:54:00,
2013-04-12 00:55:00,53.4,48.4,29.84,ESE,113,0.0,0.0,83,0.00,,---,0.00,VWS V14.00,2013-04-12 05:55:00,
2013-04-12 00:56:00,53.5,48.5,29.84,ESE,113,0.0,0.0,83,0.00,,---,0.00,VWS V14.00,2013-04-12 05:56:00,
2013-04-12 00:57:00,53.4,48.4,29.84,ESE,113,0.0,0.0,83,0.00,,---,0.00,VWS V14.00,2013-04-12 05:57:00,
2013-04-12 00:58:00,53.4,48.4,29.84,ESE,113,0.0,0.0,83,0.00,,---,0.00,VWS V14.00,2013-04-12 05:58:00,
2013-04-12 00:59:00,53.3,48.3,29.84,ESE,113,0.0,0.0,83,0.00,,---,0.00,VWS V14.00,2013-04-12 05:59:00,
2013-04-12 01:00:00,52.9,47.9,29.84,ESE,113,0.0,0.0,83,0.00,,---,0.00,VWS V14.00,2013-04-12 06:00:00,
2013-04-12 01:01:00,53.1,48.1,29.84,ESE,113,0.0,0.0,83,0.00,,---,0.00,VWS V14.00,2013-04-12 06:01:00,
2013-04-12 01:02:00,53.0,48.0,29.84,ESE,113,0.0,0.0,83,0.00,,---,0.00,VWS V14.00,2013-04-12 06:02:00,
2013-04-12 01:03:00,52.9,48.2,29.84,ESE,113,0.0,0.0,84,0.00,,---,0.00,VWS V14.00,2013-04-12 06:03:00,
2013-04-12 01:04:00,52.8,47.8,29.84,ESE,113,0.0,0.0,83,0.00,,---,0.00,VWS V14.00,2013-04-12 06:04:00,
2013-04-12 01:05:00,52.9,48.2,29.84,ESE,113,0.0,0.0,84,0.00,,---,0.00,VWS V14.00,2013-04-12 06:05:00,
2013-04-12 01:06:00,52.9,48.2,29.84,ESE,113,0.0,0.0,84,0.00,,---,0.00,VWS V14.00,2013-04-12 06:06:00,
2013-04-12 01:07:00,52.9,48.2,29.84,ESE,113,0.0,0.0,84,0.00,,---,0.00,VWS V14.00,2013-04-12 06:07:00,
2013-04-12 01:08:00,52.9,48.2,29.84,ESE,113,0.0,0.0,84,0.00,,---,0.00,VWS V14.00,2013-04-12 06:08:00,
2013-04-12 01:09:00,52.9,48.2,29.84,ESE,113,0.0,0.0,84,0.00,,---,0.00,VWS V14.00,2013-04-12 06:09:00,
2013-04-12 01:10:00,52.8,48.4,29.84,ESE,113,0.0,0.0,85,0.00,,---,0.00,VWS V14.00,2013-04-12 06:10:00,
2013-04-12 01:11:00,52.8,48.1,29.84,ESE,113,0.0,0.0,84,0.00,,---,0.00,VWS V14.00,2013-04-12 06:11:00,
2013-04-12 01:12:00,52.8,48.1,29.84,ESE,113,0.0,0.0,84,0.00,,---,0.00,VWS V14.00,2013-04-12 06:12:00,
2013-04-12 01:13:00,52.8,48.4,29.84,ESE,113,0.0,0.0,85,0.00,,---,0.00,VWS V14.00,2013-04-12 06:13:00,
2013-04-12 01:14:00,52.9,48.5,29.84,ESE,113,0.0,0.0,85,0.00,,---,0.00,VWS V14.00,2013-04-12 06:14:00,
2013-04-12 01:15:00,53.0,48.6,29.84,ESE,113,0.0,0.0,85,0.00,,---,0.00,VWS V14.00,2013-04-12 06:15:00,
2013-04-12 01:16:00,53.0,48.6,29.84,ESE,113,0.0,0.0,85,0.00,,---,0.00,VWS V14.00,2013-04-12 06:16:00,
2013-04-12 01:17:00,53.0,48.6,29.84,ESE,113,0.0,0.0,85,0.00,,---,0.00,VWS V14.00,2013-04-12 06:17:00,
2013-04-12 01:18:00,53.0,48.6,29.84,ESE,113,0.0,0.0,85,0.00,,---,0.00,VWS V14.00,2013-04-12 06:18:00,
2013-04-12 01:19:00,52.9,48.5,29.84,ESE,113,0.0,0.0,85,0.00,,---,0.00,VWS V14.00,2013-04-12 06:19:00,
2013-04-12 01:20:00,52.6,48.2,29.84,ESE,113,0.0,0.0,85,0.00,,---,0.00,VWS V14.00,2013-04-12 06:20:00,
2013-04-12 01:21:00,52.7,48.3,29.84,ESE,113,0.0,0.0,85,0.00,,---,0.00,VWS V14.00,2013-04-12 06:21:00,
2013-04-12 01:22:00,52.6,48.2,29.84,ESE,113,0.0,0.0,85,0.00,,---,0.00,VWS V14.00,2013-04-12 06:22:00,
2013-04-12 01:23:00,52.6,48.2,29.84,ESE,113,0.0,0.0,85,0.00,,---,0.00,VWS V14.00,2013-04-12 06:23:00,
2013-04-12 01:24:00,52.6,48.2,29.84,ESE,113,0.0,0.0,85,0.00,,---,0.00,VWS V14.00,2013-04-12 06:24:00,
2013-04-12 01:25:00,52.8,48.4,29.84,ESE,113,0.0,0.0,85,0.00,,---,0.00,VWS V14.00,2013-04-12 06:25:00,
2013-04-12 01:26:00,52.6,48.2,29.84,ESE,113,0.0,0.0,85,0.00,,---,0.00,VWS V14.00,2013-04-12 06:26:00,
2013-04-12 01:27:00,52.8,48.4,29.84,ESE,113,0.0,0.0,85,0.00,,---,0.00,VWS V14.00,2013-04-12 06:27:00,
2013-04-12 01:28:00,52.8,48.4,29.84,ESE,113,0.0,0.0,85,0.00,,---,0.00,VWS V14.00,2013-04-12 06:28:00,
2013-04-12 01:29:00,52.9,48.8,29.84,ESE,113,0.0,0.0,86,0.00,,---,0.00,VWS V14.00,2013-04-12 06:29:00,
2013-04-12 01:30:00,53.2,49.1,29.84,ESE,113,0.0,0.0,86,0.00,,---,0.00,VWS V14.00,2013-04-12 06:30:00,
2013-04-12 01:31:00,53.1,49.0,29.84,ESE,113,0.0,0.0,86,0.00,,---,0.00,VWS V14.00,2013-04-12 06:31:00,
2013-04-12 01:32:00,53.1,49.0,29.84,ESE,113,0.0,0.0,86,0.00,,---,0.00,VWS V14.00,2013-04-12 06:32:00,
2013-04-12 01:33:00,53.2,49.1,29.84,ESE,113,0.0,0.0,86,0.00,,---,0.00,VWS V14.00,2013-04-12 06:33:00,
2013-04-12 01:34:00,53.3,49.2,29.84,ESE,113,0.0,0.0,86,0.00,,---,0.00,VWS V14.00,2013-04-12 06:34:00,
2013-04-12 01:35:00,53.5,49.4,29.84,ESE,113,0.0,0.0,86,0.00,,---,0.00,VWS V14.00,2013-04-12 06:35:00,
2013-04-12 01:36:00,53.4,49.3,29.84,ESE,113,0.0,0.0,86,0.00,,---,0.00,VWS V14.00,2013-04-12 06:36:00,
2013-04-12 01:37:00,53.5,49.4,29.84,ESE,113,0.0,0.0,86,0.00,,---,0.00,VWS V14.00,2013-04-12 06:37:00,
2013-04-12 01:38:00,53.5,49.4,29.84,ESE,113,0.0,0.0,86,0.00,,---,0.00,VWS V14.00,2013-04-12 06:38:00,
2013-04-12 01:39:00,53.5,49.4,29.84,ESE,113,0.0,0.0,86,0.00,,---,0.00,VWS V14.00,2013-04-12 06:39:00,
2013-04-12 01:40:00,53.7,49.6,29.84,ESE,113,0.0,0.0,86,0.00,,---,0.00,VWS V14.00,2013-04-12 06:40:00,
2013-04-12 01:41:00,53.6,49.5,29.84,ESE,113,0.0,0.0,86,0.00,,---,0.00,VWS V14.00,2013-04-12 06:41:00,
2013-04-12 01:42:00,53.7,49.6,29.84,ESE,113,0.0,0.0,86,0.00,,---,0.00,VWS V14.00,2013-04-12 06:42:00,
2013-04-12 01:43:00,53.7,49.6,29.84,ESE,113,0.0,0.0,86,0.00,,---,0.00,VWS V14.00,2013-04-12 06:43:00,
2013-04-12 01:44:00,53.7,49.6,29.84,ESE,113,0.0,0.0,86,0.00,,---,0.00,VWS V14.00,2013-04-12 06:44:00,
2013-04-12 01:45:00,54.0,50.2,29.84,ESE,113,0.0,0.0,87,0.00,,---,0.00,VWS V14.00,2013-04-12 06:45:00,
2013-04-12 01:46:00,53.9,49.8,29.84,ESE,113,0.0,0.0,86,0.00,,---,0.00,VWS V14.00,2013-04-12 06:46:00,
2013-04-12 01:47:00,53.9,50.1,29.84,ESE,113,0.0,0.0,87,0.00,,---,0.00,VWS V14.00,2013-04-12 06:47:00,
2013-04-12 01:48:00,54.1,50.3,29.84,ESE,113,0.0,0.0,87,0.00,,---,0.00,VWS V14.00,2013-04-12 06:48:00,
2013-04-12 01:49:00,54.2,50.4,29.84,ESE,113,0.0,0.0,87,0.00,,---,0.00,VWS V14.00,2013-04-12 06:49:00,
2013-04-12 01:50:00,54.5,50.7,29.84,ESE,113,0.0,0.0,87,0.00,,---,0.00,VWS V14.00,2013-04-12 06:50:00,
2013-04-12 01:51:00,54.3,50.5,29.84,ESE,113,0.0,0.0,87,0.00,,---,0.00,VWS V14.00,2013-04-12 06:51:00,
2013-04-12 01:52:00,54.4,50.6,29.84,ESE,113,0.0,0.0,87,0.00,,---,0.00,VWS V14.00,2013-04-12 06:52:00,
2013-04-12 01:53:00,54.5,50.7,29.84,ESE,113,0.0,0.0,87,0.00,,---,0.00,VWS V14.00,2013-04-12 06:53:00,
2013-04-12 01:54:00,54.6,50.8,29.84,ESE,113,0.0,0.0,87,0.00,,---,0.00,VWS V14.00,2013-04-12 06:54:00,
2013-04-12 01:55:00,54.8,51.0,29.84,ESE,113,0.0,0.0,87,0.00,,---,0.00,VWS V14.00,2013-04-12 06:55:00,
2013-04-12 01:56:00,54.7,50.9,29.84,ESE,113,0.0,0.0,87,0.00,,---,0.00,VWS V14.00,2013-04-12 06:56:00,
2013-04-12 01:57:00,54.8,51.0,29.84,ESE,113,0.0,0.0,87,0.00,,---,0.00,VWS V14.00,2013-04-12 06:57:00,
2013-04-12 01:58:00,54.8,51.0,29.84,ESE,113,0.0,0.0,87,0.00,,---,0.00,VWS V14.00,2013-04-12 06:58:00,
2013-04-12 01:59:00,54.9,51.1,29.83,ESE,113,0.0,0.0,87,0.00,,---,0.00,VWS V14.00,2013-04-12 06:59:00,
2013-04-12 02:00:00,55.0,51.2,29.83,ESE,113,0.0,0.0,87,0.00,,---,0.00,VWS V14.00,2013-04-12 07:00:00,
2013-04-12 02:01:00,55.0,51.2,29.83,ESE,113,0.0,0.0,87,0.00,,---,0.00,VWS V14.00,2013-04-12 07:01:00,
2013-04-12 02:02:00,55.0,51.2,29.83,ESE,113,0.0,0.0,87,0.00,,---,0.00,VWS V14.00,2013-04-12 07:02:00,
2013-04-12 02:03:00,55.0,51.2,29.83,ESE,113,0.0,0.0,87,0.00,,---,0.00,VWS V14.00,2013-04-12 07:03:00,
2013-04-12 02:04:00,55.1,51.3,29.84,ESE,113,0.0,0.0,87,0.00,,---,0.00,VWS V14.00,2013-04-12 07:04:00,
2013-04-12 02:05:00,55.2,51.4,29.84,ESE,113,0.0,0.0,87,0.00,,---,0.00,VWS V14.00,2013-04-12 07:05:00,
2013-04-12 02:06:00,55.2,51.4,29.84,ESE,113,0.0,0.0,87,0.00,,---,0.00,VWS V14.00,2013-04-12 07:06:00,
2013-04-12 02:07:00,55.2,51.4,29.84,ESE,113,0.0,0.0,87,0.00,,---,0.00,VWS V14.00,2013-04-12 07:07:00,
2013-04-12 02:08:00,55.3,51.5,29.84,ESE,113,0.0,0.0,87,0.00,,---,0.00,VWS V14.00,2013-04-12 07:08:00,
2013-04-12 02:09:00,55.3,51.5,29.84,ESE,113,0.0,0.0,87,0.00,,---,0.00,VWS V14.00,2013-04-12 07:09:00,
2013-04-12 02:10:00,55.5,51.7,29.84,ESE,113,0.0,0.0,87,0.00,,---,0.00,VWS V14.00,2013-04-12 07:10:00,
2013-04-12 02:12:00,55.4,51.6,29.84,ESE,113,0.0,0.0,87,0.00,,---,0.00,VWS V14.00,2013-04-12 07:12:00,
2013-04-12 02:13:00,55.5,51.7,29.84,ESE,113,0.0,0.0,87,0.00,,---,0.00,VWS V14.00,2013-04-12 07:13:00,
2013-04-12 02:14:00,55.5,51.7,29.84,ESE,113,0.0,0.0,87,0.00,,---,0.00,VWS V14.00,2013-04-12 07:14:00,
2013-04-12 02:15:00,55.5,51.7,29.84,ESE,113,0.0,0.0,87,0.00,,---,0.00,VWS V14.00,2013-04-12 07:15:00,
2013-04-12 02:16:00,55.5,51.7,29.84,ESE,113,0.0,0.0,87,0.00,,---,0.00,VWS V14.00,2013-04-12 07:16:00,
2013-04-12 02:17:00,55.5,51.7,29.84,ESE,113,0.0,0.0,87,0.00,,---,0.00,VWS V14.00,2013-04-12 07:17:00,
2013-04-12 02:18:00,55.6,51.8,29.84,ESE,113,0.0,0.0,87,0.00,,---,0.00,VWS V14.00,2013-04-12 07:18:00,
2013-04-12 02:20:00,55.8,52.0,29.83,ESE,113,0.0,0.0,87,0.00,,---,0.00,VWS V14.00,2013-04-12 07:20:00,
2013-04-12 02:21:00,55.7,51.9,29.83,ESE,113,0.0,0.0,87,0.00,,---,0.00,VWS V14.00,2013-04-12 07:21:00,
2013-04-12 02:22:00,55.8,52.0,29.83,ESE,113,0.0,0.0,87,0.00,,---,0.00,VWS V14.00,2013-04-12 07:22:00,
2013-04-12 02:23:00,55.7,51.9,29.83,ESE,113,0.0,0.0,87,0.00,,---,0.00,VWS V14.00,2013-04-12 07:23:00,
2013-04-12 02:24:00,55.8,52.0,29.83,ESE,113,0.0,0.0,87,0.00,,---,0.00,VWS V14.00,2013-04-12 07:24:00,
2013-04-12 02:25:00,55.6,51.5,29.83,ESE,113,0.0,0.0,86,0.00,,---,0.00,VWS V14.00,2013-04-12 07:25:00,
2013-04-12 02:26:00,55.7,51.9,29.83,ESE,113,0.0,0.0,87,0.00,,---,0.00,VWS V14.00,2013-04-12 07:26:00,
2013-04-12 02:27:00,55.7,51.9,29.83,ESE,113,0.0,0.0,87,0.00,,---,0.00,VWS V14.00,2013-04-12 07:27:00,
2013-04-12 02:28:00,55.5,51.4,29.83,ESE,113,0.0,0.0,86,0.00,,---,0.00,VWS V14.00,2013-04-12 07:28:00,
2013-04-12 02:29:00,55.3,51.2,29.83,ESE,113,0.0,0.0,86,0.00,,---,0.00,VWS V14.00,2013-04-12 07:29:00,
2013-04-12 02:30:00,54.8,50.7,29.83,ESE,113,0.0,0.0,86,0.00,,---,0.00,VWS V14.00,2013-04-12 07:30:00,
2013-04-12 02:31:00,54.9,50.8,29.83,ESE,113,0.0,0.0,86,0.00,,---,0.00,VWS V14.00,2013-04-12 07:31:00,
2013-04-12 02:32:00,54.8,50.7,29.83,ESE,113,0.0,0.0,86,0.00,,---,0.00,VWS V14.00,2013-04-12 07:32:00,
2013-04-12 02:33:00,54.7,50.6,29.83,ESE,113,0.0,0.0,86,0.00,,---,0.00,VWS V14.00,2013-04-12 07:33:00,
2013-04-12 02:34:00,54.7,50.9,29.83,ESE,113,0.0,0.0,87,0.00,,---,0.00,VWS V14.00,2013-04-12 07:34:00,
2013-04-12 02:35:00,54.8,51.0,29.82,ESE,113,0.0,0.0,87,0.00,,---,0.00,VWS V14.00,2013-04-12 07:35:00,
2013-04-12 02:36:00,54.7,50.9,29.83,ESE,113,0.0,0.0,87,0.00,,---,0.00,VWS V14.00,2013-04-12 07:36:00,
2013-04-12 02:37:00,54.8,51.0,29.83,ESE,113,0.0,0.0,87,0.00,,---,0.00,VWS V14.00,2013-04-12 07:37:00,
2013-04-12 02:38:00,54.8,51.0,29.82,ESE,113,0.0,0.0,87,0.00,,---,0.00,VWS V14.00,2013-04-12 07:38:00,
2013-04-12 02:39:00,54.8,51.0,29.82,ESE,113,0.0,0.0,87,0.00,,---,0.00,VWS V14.00,2013-04-12 07:39:00,
2013-04-12 02:40:00,54.9,51.4,29.82,ESE,113,0.0,0.0,88,0.00,,---,0.00,VWS V14.00,2013-04-12 07:40:00,
2013-04-12 02:41:00,54.9,51.1,29.82,ESE,113,0.0,0.0,87,0.00,,---,0.00,VWS V14.00,2013-04-12 07:41:00,
2013-04-12 02:42:00,54.9,51.4,29.82,ESE,113,0.0,0.0,88,0.00,,---,0.00,VWS V14.00,2013-04-12 07:42:00,
2013-04-12 02:43:00,54.9,51.4,29.82,ESE,113,0.0,0.0,88,0.00,,---,0.00,VWS V14.00,2013-04-12 07:43:00,
2013-04-12 02:44:00,55.0,51.5,29.82,ESE,113,0.0,0.0,88,0.00,,---,0.00,VWS V14.00,2013-04-12 07:44:00,
2013-04-12 02:45:00,54.8,51.0,29.82,ESE,113,0.0,0.0,87,0.00,,---,0.00,VWS V14.00,2013-04-12 07:45:00,
2013-04-12 02:46:00,54.9,51.1,29.82,ESE,113,0.0,0.0,87,0.00,,---,0.00,VWS V14.00,2013-04-12 07:46:00,
2013-04-12 02:47:00,54.8,51.0,29.82,ESE,113,0.0,0.0,87,0.00,,---,0.00,VWS V14.00,2013-04-12 07:47:00,
2013-04-12 02:48:00,54.8,51.0,29.82,ESE,113,0.0,0.0,87,0.00,,---,0.00,VWS V14.00,2013-04-12 07:48:00,
2013-04-12 02:49:00,54.5,50.7,29.82,ESE,113,0.0,0.0,87,0.00,,---,0.00,VWS V14.00,2013-04-12 07:49:00,
2013-04-12 02:50:00,54.7,50.9,29.82,ESE,113,0.0,0.0,87,0.00,,---,0.00,VWS V14.00,2013-04-12 07:50:00,
2013-04-12 02:51:00,54.6,50.8,29.82,ESE,113,0.0,0.0,87,0.00,,---,0.00,VWS V14.00,2013-04-12 07:51:00,
2013-04-12 02:52:00,54.5,50.7,29.82,ESE,113,0.0,0.0,87,0.00,,---,0.00,VWS V14.00,2013-04-12 07:52:00,
2013-04-12 02:53:00,54.5,50.7,29.82,ESE,113,0.0,0.0,87,0.00,,---,0.00,VWS V14.00,2013-04-12 07:53:00,
2013-04-12 02:54:00,54.4,50.6,29.82,ESE,113,0.0,0.0,87,0.00,,---,0.00,VWS V14.00,2013-04-12 07:54:00,
2013-04-12 02:55:00,54.0,50.2,29.82,ESE,113,0.0,0.0,87,0.00,,---,0.00,VWS V14.00,2013-04-12 07:55:00,
2013-04-12 02:56:00,54.1,50.3,29.82,ESE,113,0.0,0.0,87,0.00,,---,0.00,VWS V14.00,2013-04-12 07:56:00,
2013-04-12 02:57:00,54.0,50.2,29.82,ESE,113,0.0,0.0,87,0.00,,---,0.00,VWS V14.00,2013-04-12 07:57:00,
2013-04-12 02:58:00,54.0,50.2,29.82,ESE,113,0.0,0.0,87,0.00,,---,0.00,VWS V14.00,2013-04-12 07:58:00,
2013-04-12 02:59:00,54.0,50.2,29.82,ESE,113,0.0,0.0,87,0.00,,---,0.00,VWS V14.00,2013-04-12 07:59:00,
2013-04-12 03:00:00,53.4,49.3,29.82,ESE,113,0.0,0.0,86,0.00,,---,0.00,VWS V14.00,2013-04-12 08:00:00,
2013-04-12 03:01:00,53.8,50.0,29.82,ESE,113,0.0,0.0,87,0.00,,---,0.00,VWS V14.00,2013-04-12 08:01:00,
2013-04-12 03:02:00,53.6,49.5,29.82,ESE,113,0.0,0.0,86,0.00,,---,0.00,VWS V14.00,2013-04-12 08:02:00,
2013-04-12 03:03:00,53.3,49.2,29.82,ESE,113,0.0,0.0,86,0.00,,---,0.00,VWS V14.00,2013-04-12 08:03:00,
2013-04-12 03:04:00,53.1,49.0,29.82,ESE,113,0.0,0.0,86,0.00,,---,0.00,VWS V14.00,2013-04-12 08:04:00,
2013-04-12 03:05:00,52.8,49.0,29.82,ESE,113,0.0,0.0,87,0.00,,---,0.00,VWS V14.00,2013-04-12 08:05:00,
2013-04-12 03:06:00,52.9,49.1,29.82,ESE,113,0.0,0.0,87,0.00,,---,0.00,VWS V14.00,2013-04-12 08:06:00,
2013-04-12 03:07:00,52.9,49.1,29.82,ESE,113,0.0,0.0,87,0.00,,---,0.00,VWS V14.00,2013-04-12 08:07:00,
2013-04-12 03:08:00,52.8,49.0,29.82,ESE,113,0.0,0.0,87,0.00,,---,0.00,VWS V14.00,2013-04-12 08:08:00,
2013-04-12 03:09:00,52.7,49.0,29.82,ESE,113,0.0,0.0,87,0.00,,---,0.00,VWS V14.00,2013-04-12 08:09:00,
2013-04-12 03:10:00,52.5,48.8,29.82,ESE,113,0.0,0.0,87,0.00,,---,0.00,VWS V14.00,2013-04-12 08:10:00,
2013-04-12 03:11:00,52.6,48.8,29.82,ESE,113,0.0,0.0,87,0.00,,---,0.00,VWS V14.00,2013-04-12 08:11:00,
2013-04-12 03:12:00,52.5,48.8,29.82,ESE,113,0.0,0.0,87,0.00,,---,0.00,VWS V14.00,2013-04-12 08:12:00,
2013-04-12 03:13:00,52.5,48.8,29.82,ESE,113,0.0,0.0,87,0.00,,---,0.00,VWS V14.00,2013-04-12 08:13:00,
2013-04-12 03:14:00,52.6,48.8,29.82,ESE,113,0.0,0.0,87,0.00,,---,0.00,VWS V14.00,2013-04-12 08:14:00,
2013-04-12 03:15:00,52.5,48.8,29.82,ESE,113,0.0,0.0,87,0.00,,---,0.00,VWS V14.00,2013-04-12 08:15:00,
2013-04-12 03:16:00,52.5,48.8,29.82,ESE,113,0.0,0.0,87,0.00,,---,0.00,VWS V14.00,2013-04-12 08:16:00,
2013-04-12 03:17:00,52.5,48.8,29.82,ESE,113,0.0,0.0,87,0.00,,---,0.00,VWS V14.00,2013-04-12 08:17:00,
2013-04-12 03:18:00,52.4,48.7,29.82,ESE,113,0.0,0.0,87,0.00,,---,0.00,VWS V14.00,2013-04-12 08:18:00,
2013-04-12 03:19:00,52.3,48.9,29.82,ESE,113,0.0,0.0,88,0.00,,---,0.00,VWS V14.00,2013-04-12 08:19:00,
2013-04-12 03:20:00,52.4,48.7,29.82,ESE,113,0.0,0.0,87,0.00,,---,0.00,VWS V14.00,2013-04-12 08:20:00,
2013-04-12 03:21:00,52.4,48.7,29.82,ESE,113,0.0,0.0,87,0.00,,---,0.00,VWS V14.00,2013-04-12 08:21:00,
2013-04-12 03:22:00,52.3,48.9,29.82,ESE,113,0.0,0.0,88,0.00,,---,0.00,VWS V14.00,2013-04-12 08:22:00,
2013-04-12 03:23:00,52.3,48.9,29.82,ESE,113,0.0,0.0,88,0.00,,---,0.00,VWS V14.00,2013-04-12 08:23:00,
2013-04-12 03:24:00,51.7,48.0,29.82,ESE,113,0.0,0.0,87,0.00,,---,0.00,VWS V14.00,2013-04-12 08:24:00,
2013-04-12 03:25:00,52.1,48.4,29.82,ESE,113,0.0,0.0,87,0.00,,---,0.00,VWS V14.00,2013-04-12 08:25:00,
2013-04-12 03:26:00,51.9,48.2,29.82,ESE,113,0.0,0.0,87,0.00,,---,0.00,VWS V14.00,2013-04-12 08:26:00,
2013-04-12 03:27:00,51.8,48.1,29.82,ESE,113,0.0,0.0,87,0.00,,---,0.00,VWS V14.00,2013-04-12 08:27:00,
2013-04-12 03:28:00,51.7,48.0,29.82,ESE,113,0.0,0.0,87,0.00,,---,0.00,VWS V14.00,2013-04-12 08:28:00,
2013-04-12 03:29:00,51.4,47.7,29.82,ESE,113,0.0,0.0,87,0.00,,---,0.00,VWS V14.00,2013-04-12 08:29:00,
2013-04-12 03:30:00,51.6,47.9,29.82,ESE,113,0.0,0.0,87,0.00,,---,0.00,VWS V14.00,2013-04-12 08:30:00,
2013-04-12 03:31:00,51.5,47.8,29.82,ESE,113,0.0,0.0,87,0.00,,---,0.00,VWS V14.00,2013-04-12 08:31:00,
2013-04-12 03:32:00,51.4,47.7,29.82,ESE,113,0.0,0.0,87,0.00,,---,0.00,VWS V14.00,2013-04-12 08:32:00,
2013-04-12 03:33:00,51.3,47.6,29.82,ESE,113,0.0,0.0,87,0.00,,---,0.00,VWS V14.00,2013-04-12 08:33:00,
2013-04-12 03:34:00,51.0,47.6,29.82,ESE,113,0.0,0.0,88,0.00,,---,0.00,VWS V14.00,2013-04-12 08:34:00,
2013-04-12 03:35:00,51.1,47.4,29.82,ESE,113,0.0,0.0,87,0.00,,---,0.00,VWS V14.00,2013-04-12 08:35:00,
2013-04-12 03:36:00,51.0,47.3,29.82,ESE,113,0.0,0.0,87,0.00,,---,0.00,VWS V14.00,2013-04-12 08:36:00,
2013-04-12 03:37:00,51.0,47.6,29.82,ESE,113,0.0,0.0,88,0.00,,---,0.00,VWS V14.00,2013-04-12 08:37:00,
2013-04-12 03:38:00,51.0,47.6,29.82,ESE,113,0.0,0.0,88,0.00,,---,0.00,VWS V14.00,2013-04-12 08:38:00,
2013-04-12 03:39:00,51.1,47.7,29.82,ESE,113,0.0,0.0,88,0.00,,---,0.00,VWS V14.00,2013-04-12 08:39:00,
2013-04-12 03:40:00,51.3,47.9,29.82,ESE,113,0.0,0.0,88,0.00,,---,0.00,VWS V14.00,2013-04-12 08:40:00,
2013-04-12 03:41:00,51.2,47.8,29.82,ESE,113,0.0,0.0,88,0.00,,---,0.00,VWS V14.00,2013-04-12 08:41:00,
2013-04-12 03:42:00,51.2,47.8,29.82,ESE,113,0.0,0.0,88,0.00,,---,0.00,VWS V14.00,2013-04-12 08:42:00,
2013-04-12 03:43:00,51.3,47.9,29.82,ESE,113,0.0,0.0,88,0.00,,---,0.00,VWS V14.00,2013-04-12 08:43:00,
2013-04-12 03:44:00,51.2,47.8,29.82,ESE,113,0.0,0.0,88,0.00,,---,0.00,VWS V14.00,2013-04-12 08:44:00,
2013-04-12 03:45:00,51.3,47.9,29.82,ESE,113,0.0,0.0,88,0.00,,---,0.00,VWS V14.00,2013-04-12 08:45:00,
2013-04-12 03:46:00,51.2,47.8,29.82,ESE,113,0.0,0.0,88,0.00,,---,0.00,VWS V14.00,2013-04-12 08:46:00,
2013-04-12 03:47:00,51.2,47.8,29.82,ESE,113,0.0,0.0,88,0.00,,---,0.00,VWS V14.00,2013-04-12 08:47:00,
2013-04-12 03:48:00,51.1,47.7,29.82,ESE,113,0.0,0.0,88,0.00,,---,0.00,VWS V14.00,2013-04-12 08:48:00,
2013-04-12 03:49:00,51.1,47.7,29.82,ESE,113,0.0,0.0,88,0.00,,---,0.00,VWS V14.00,2013-04-12 08:49:00,
2013-04-12 03:50:00,51.0,47.6,29.82,ESE,113,0.0,0.0,88,0.00,,---,0.00,VWS V14.00,2013-04-12 08:50:00,
2013-04-12 03:51:00,51.0,47.6,29.82,ESE,113,0.0,0.0,88,0.00,,---,0.00,VWS V14.00,2013-04-12 08:51:00,
2013-04-12 03:52:00,51.0,47.6,29.82,ESE,113,0.0,0.0,88,0.00,,---,0.00,VWS V14.00,2013-04-12 08:52:00,
2013-04-12 03:53:00,51.0,47.6,29.82,ESE,113,0.0,0.0,88,0.00,,---,0.00,VWS V14.00,2013-04-12 08:53:00,
2013-04-12 03:54:00,51.0,47.6,29.82,ESE,113,0.0,0.0,88,0.00,,---,0.00,VWS V14.00,2013-04-12 08:54:00,
2013-04-12 03:55:00,51.0,47.6,29.82,ESE,113,0.0,0.0,88,0.00,,---,0.00,VWS V14.00,2013-04-12 08:55:00,
2013-04-12 03:56:00,51.0,47.6,29.82,ESE,113,0.0,0.0,88,0.00,,---,0.00,VWS V14.00,2013-04-12 08:56:00,
2013-04-12 03:57:00,50.9,47.5,29.82,ESE,113,0.0,0.0,88,0.00,,---,0.00,VWS V14.00,2013-04-12 08:57:00,
2013-04-12 03:58:00,50.9,47.5,29.82,ESE,113,0.0,0.0,88,0.00,,---,0.00,VWS V14.00,2013-04-12 08:58:00,
2013-04-12 03:59:00,50.9,47.5,29.82,ESE,113,0.0,0.0,88,0.00,,---,0.00,VWS V14.00,2013-04-12 08:59:00,
2013-04-12 04:00:00,50.6,47.2,29.82,ESE,113,0.0,0.0,88,0.00,,---,0.00,VWS V14.00,2013-04-12 09:00:00,
2013-04-12 04:01:00,50.7,47.3,29.82,ESE,113,0.0,0.0,88,0.00,,---,0.00,VWS V14.00,2013-04-12 09:01:00,
2013-04-12 04:02:00,50.6,47.2,29.82,ESE,113,0.0,0.0,88,0.00,,---,0.00,VWS V14.00,2013-04-12 09:02:00,
2013-04-12 04:03:00,50.6,47.2,29.82,ESE,113,0.0,0.0,88,0.00,,---,0.00,VWS V14.00,2013-04-12 09:03:00,
2013-04-12 04:04:00,50.6,47.5,29.82,ESE,113,0.0,0.0,89,0.00,,---,0.00,VWS V14.00,2013-04-12 09:04:00,
2013-04-12 04:05:00,50.5,47.1,29.82,ESE,113,0.0,0.0,88,0.00,,---,0.00,VWS V14.00,2013-04-12 09:05:00,
2013-04-12 04:06:00,50.5,47.1,29.82,ESE,113,0.0,0.0,88,0.00,,---,0.00,VWS V14.00,2013-04-12 09:06:00,
2013-04-12 04:07:00,50.5,47.1,29.82,ESE,113,0.0,0.0,88,0.00,,---,0.00,VWS V14.00,2013-04-12 09:07:00,
2013-04-12 04:08:00,50.5,47.4,29.82,ESE,113,0.0,0.0,89,0.00,,---,0.00,VWS V14.00,2013-04-12 09:08:00,
2013-04-12 04:09:00,49.7,46.3,29.82,ESE,113,0.0,0.0,88,0.00,,---,0.00,VWS V14.00,2013-04-12 09:09:00,
2013-04-12 04:10:00,50.2,46.8,29.82,ESE,113,0.0,0.0,88,0.00,,---,0.00,VWS V14.00,2013-04-12 09:10:00,
2013-04-12 04:11:00,50.0,46.6,29.82,ESE,113,0.0,0.0,88,0.00,,---,0.00,VWS V14.00,2013-04-12 09:11:00,
2013-04-12 04:12:00,49.8,46.4,29.82,ESE,113,0.0,0.0,88,0.00,,---,0.00,VWS V14.00,2013-04-12 09:12:00,
2013-04-12 04:13:00,49.6,46.2,29.82,ESE,113,0.0,0.0,88,0.00,,---,0.00,VWS V14.00,2013-04-12 09:13:00,
2013-04-12 04:14:00,49.1,45.7,29.82,ESE,113,0.0,0.0,88,0.00,,---,0.00,VWS V14.00,2013-04-12 09:14:00,
2013-04-12 04:15:00,49.2,45.8,29.82,ESE,113,0.0,0.0,88,0.00,,---,0.00,VWS V14.00,2013-04-12 09:15:00,
2013-04-12 04:16:00,49.2,45.8,29.82,ESE,113,0.0,0.0,88,0.00,,---,0.00,VWS V14.00,2013-04-12 09:16:00,
2013-04-12 04:17:00,49.1,45.7,29.82,ESE,113,0.0,0.0,88,0.00,,---,0.00,VWS V14.00,2013-04-12 09:17:00,
2013-04-12 04:18:00,49.1,46.0,29.82,ESE,113,1.0,1.0,89,0.00,,---,0.00,VWS V14.00,2013-04-12 09:18:00,
2013-04-12 04:19:00,49.4,46.3,29.82,ESE,113,4.0,5.0,89,0.00,,---,0.00,VWS V14.00,2013-04-12 09:19:00,
2013-04-12 04:20:00,49.2,46.1,29.82,ESE,113,6.0,6.0,89,0.00,,---,0.00,VWS V14.00,2013-04-12 09:20:00,
2013-04-12 04:21:00,49.3,46.2,29.82,ESE,113,6.0,6.0,89,0.00,,---,0.00,VWS V14.00,2013-04-12 09:21:00,
2013-04-12 04:22:00,49.3,46.2,29.82,ESE,113,5.0,6.0,89,0.00,,---,0.00,VWS V14.00,2013-04-12 09:22:00,
2013-04-12 04:23:00,49.4,46.3,29.82,ESE,113,5.0,5.0,89,0.00,,---,0.00,VWS V14.00,2013-04-12 09:23:00,
2013-04-12 04:24:00,49.7,46.6,29.82,ESE,113,4.0,4.0,89,0.00,,---,0.00,VWS V14.00,2013-04-12 09:24:00,
2013-04-12 04:25:00,49.5,46.4,29.82,ESE,113,4.0,5.0,89,0.00,,---,0.00,VWS V14.00,2013-04-12 09:25:00,
2013-04-12 04:26:00,49.6,46.5,29.82,ESE,113,4.0,4.0,89,0.00,,---,0.00,VWS V14.00,2013-04-12 09:26:00,
2013-04-12 04:27:00,49.6,46.5,29.82,ESE,113,4.0,4.0,89,0.00,,---,0.00,VWS V14.00,2013-04-12 09:27:00,
2013-04-12 04:28:00,49.7,46.6,29.82,ESE,113,2.0,4.0,89,0.00,,---,0.00,VWS V14.00,2013-04-12 09:28:00,
2013-04-12 04:29:00,49.7,46.6,29.82,ESE,113,0.0,0.0,89,0.00,,---,0.00,VWS V14.00,2013-04-12 09:29:00,
2013-04-12 04:30:00,49.7,46.6,29.82,ESE,113,0.0,0.0,89,0.00,,---,0.00,VWS V14.00,2013-04-12 09:30:00,
2013-04-12 04:31:00,49.7,46.6,29.82,ESE,113,0.0,0.0,89,0.00,,---,0.00,VWS V14.00,2013-04-12 09:31:00,
2013-04-12 04:32:00,49.7,46.6,29.82,ESE,113,0.0,0.0,89,0.00,,---,0.00,VWS V14.00,2013-04-12 09:32:00,
2013-04-12 04:33:00,49.6,46.5,29.82,ESE,113,0.0,0.0,89,0.00,,---,0.00,VWS V14.00,2013-04-12 09:33:00,
2013-04-12 04:34:00,49.5,46.4,29.82,ESE,113,0.0,0.0,89,0.00,,---,0.00,VWS V14.00,2013-04-12 09:34:00,
2013-04-12 04:35:00,49.6,46.5,29.82,ESE,113,0.0,0.0,89,0.00,,---,0.00,VWS V14.00,2013-04-12 09:35:00,
2013-04-12 04:36:00,49.5,46.4,29.82,ESE,113,0.0,0.0,89,0.00,,---,0.00,VWS V14.00,2013-04-12 09:36:00,
2013-04-12 04:37:00,49.5,46.4,29.82,ESE,113,0.0,0.0,89,0.00,,---,0.00,VWS V14.00,2013-04-12 09:37:00,
2013-04-12 04:38:00,49.5,46.4,29.82,ESE,113,0.0,0.0,89,0.00,,---,0.00,VWS V14.00,2013-04-12 09:38:00,
2013-04-12 04:39:00,49.3,46.2,29.82,ESE,113,0.0,0.0,89,0.00,,---,0.00,VWS V14.00,2013-04-12 09:39:00,
2013-04-12 04:40:00,49.4,46.3,29.82,ESE,113,0.0,0.0,89,0.00,,---,0.00,VWS V14.00,2013-04-12 09:40:00,
2013-04-12 04:41:00,49.3,46.2,29.82,ESE,113,0.0,0.0,89,0.00,,---,0.00,VWS V14.00,2013-04-12 09:41:00,
2013-04-12 04:42:00,49.3,46.2,29.82,ESE,113,0.0,0.0,89,0.00,,---,0.00,VWS V14.00,2013-04-12 09:42:00,
2013-04-12 04:43:00,49.3,46.2,29.82,ESE,113,0.0,0.0,89,0.00,,---,0.00,VWS V14.00,2013-04-12 09:43:00,
2013-04-12 04:44:00,49.3,46.2,29.82,ESE,113,0.0,0.0,89,0.00,,---,0.00,VWS V14.00,2013-04-12 09:44:00,
2013-04-12 04:45:00,49.3,46.2,29.82,ESE,113,0.0,0.0,89,0.00,,---,0.00,VWS V14.00,2013-04-12 09:45:00,
2013-04-12 04:46:00,49.3,46.2,29.82,ESE,113,0.0,0.0,89,0.00,,---,0.00,VWS V14.00,2013-04-12 09:46:00,
2013-04-12 04:47:00,49.3,46.2,29.82,ESE,113,0.0,0.0,89,0.00,,---,0.00,VWS V14.00,2013-04-12 09:47:00,
2013-04-12 04:48:00,49.3,46.2,29.82,ESE,113,0.0,0.0,89,0.00,,---,0.00,VWS V14.00,2013-04-12 09:48:00,
2013-04-12 04:49:00,49.5,46.7,29.82,ESE,113,0.0,0.0,90,0.00,,---,0.00,VWS V14.00,2013-04-12 09:49:00,
2013-04-12 04:50:00,49.4,46.6,29.82,ESE,113,0.0,0.0,90,0.00,,---,0.00,VWS V14.00,2013-04-12 09:50:00,
2013-04-12 04:51:00,49.4,46.6,29.82,ESE,113,0.0,0.0,90,0.00,,---,0.00,VWS V14.00,2013-04-12 09:51:00,
2013-04-12 04:52:00,49.5,46.7,29.82,ESE,113,0.0,0.0,90,0.00,,---,0.00,VWS V14.00,2013-04-12 09:52:00,
2013-04-12 04:53:00,49.5,46.7,29.82,ESE,113,0.0,0.0,90,0.00,,---,0.00,VWS V14.00,2013-04-12 09:53:00,
2013-04-12 04:54:00,49.8,47.0,29.82,ESE,113,0.0,0.0,90,0.00,,---,0.00,VWS V14.00,2013-04-12 09:54:00,
2013-04-12 04:55:00,49.6,46.8,29.82,ESE,113,0.0,0.0,90,0.00,,---,0.00,VWS V14.00,2013-04-12 09:55:00,
2013-04-12 04:56:00,49.6,46.8,29.82,ESE,113,0.0,0.0,90,0.00,,---,0.00,VWS V14.00,2013-04-12 09:56:00,
2013-04-12 04:57:00,49.7,46.9,29.82,ESE,113,0.0,0.0,90,0.00,,---,0.00,VWS V14.00,2013-04-12 09:57:00,
2013-04-12 04:58:00,49.9,47.1,29.82,ESE,113,0.0,0.0,90,0.00,,---,0.00,VWS V14.00,2013-04-12 09:58:00,
2013-04-12 04:59:00,49.6,46.5,29.83,ESE,113,0.0,0.0,89,0.00,,---,0.00,VWS V14.00,2013-04-12 09:59:00,
2013-04-12 05:00:00,49.9,47.1,29.83,ESE,113,0.0,0.0,90,0.00,,---,0.00,VWS V14.00,2013-04-12 10:00:00,
2013-04-12 05:01:00,49.7,46.6,29.83,ESE,113,0.0,0.0,89,0.00,,---,0.00,VWS V14.00,2013-04-12 10:01:00,
2013-04-12 05:02:00,49.6,46.5,29.83,ESE,113,0.0,0.0,89,0.00,,---,0.00,VWS V14.00,2013-04-12 10:02:00,
2013-04-12 05:03:00,49.5,46.4,29.83,ESE,113,0.0,0.0,89,0.00,,---,0.00,VWS V14.00,2013-04-12 10:03:00,
2013-04-12 05:04:00,49.2,46.1,29.83,ESE,113,0.0,0.0,89,0.00,,---,0.00,VWS V14.00,2013-04-12 10:04:00,
2013-04-12 05:05:00,49.3,46.2,29.83,ESE,113,0.0,0.0,89,0.00,,---,0.00,VWS V14.00,2013-04-12 10:05:00,
2013-04-12 05:06:00,49.2,46.1,29.83,ESE,113,0.0,0.0,89,0.00,,---,0.00,VWS V14.00,2013-04-12 10:06:00,
2013-04-12 05:07:00,49.2,46.1,29.83,ESE,113,0.0,0.0,89,0.00,,---,0.00,VWS V14.00,2013-04-12 10:07:00,
2013-04-12 05:08:00,49.2,46.4,29.83,ESE,113,0.0,0.0,90,0.00,,---,0.00,VWS V14.00,2013-04-12 10:08:00,
2013-04-12 05:09:00,49.1,46.3,29.83,ESE,113,0.0,0.0,90,0.00,,---,0.00,VWS V14.00,2013-04-12 10:09:00,
2013-04-12 05:10:00,49.2,46.4,29.83,ESE,113,0.0,0.0,90,0.00,,---,0.00,VWS V14.00,2013-04-12 10:10:00,
2013-04-12 05:11:00,49.1,46.3,29.83,ESE,113,0.0,0.0,90,0.00,,---,0.00,VWS V14.00,2013-04-12 10:11:00,
2013-04-12 05:12:00,49.2,46.4,29.83,ESE,113,0.0,0.0,90,0.00,,---,0.00,VWS V14.00,2013-04-12 10:12:00,
2013-04-12 05:13:00,49.1,46.3,29.83,ESE,113,0.0,0.0,90,0.00,,---,0.00,VWS V14.00,2013-04-12 10:13:00,
2013-04-12 05:14:00,48.9,45.8,29.83,ESE,113,0.0,0.0,89,0.00,,---,0.00,VWS V14.00,2013-04-12 10:14:00,
2013-04-12 05:15:00,49.1,46.3,29.83,ESE,113,0.0,0.0,90,0.00,,---,0.00,VWS V14.00,2013-04-12 10:15:00,
2013-04-12 05:16:00,49.0,46.2,29.83,ESE,113,0.0,0.0,90,0.00,,---,0.00,VWS V14.00,2013-04-12 10:16:00,
2013-04-12 05:17:00,48.9,45.8,29.83,ESE,113,0.0,0.0,89,0.00,,---,0.00,VWS V14.00,2013-04-12 10:17:00,
2013-04-12 05:18:00,48.9,46.1,29.83,ESE,113,0.0,0.0,90,0.00,,---,0.00,VWS V14.00,2013-04-12 10:18:00,
2013-04-12 05:19:00,49.1,46.3,29.83,ESE,113,0.0,0.0,90,0.00,,---,0.00,VWS V14.00,2013-04-12 10:19:00,
2013-04-12 05:20:00,49.0,46.2,29.83,ESE,113,0.0,0.0,90,0.00,,---,0.00,VWS V14.00,2013-04-12 10:20:00,
2013-04-12 05:21:00,49.0,46.2,29.83,ESE,113,0.0,0.0,90,0.00,,---,0.00,VWS V14.00,2013-04-12 10:21:00,
2013-04-12 05:22:00,49.0,46.2,29.83,ESE,113,0.0,0.0,90,0.00,,---,0.00,VWS V14.00,2013-04-12 10:22:00,
2013-04-12 05:23:00,49.1,46.3,29.83,ESE,113,0.0,0.0,90,0.00,,---,0.00,VWS V14.00,2013-04-12 10:23:00,
2013-04-12 05:24:00,49.2,46.4,29.83,ESE,113,0.0,0.0,90,0.00,,---,0.00,VWS V14.00,2013-04-12 10:24:00,
2013-04-12 05:25:00,49.3,46.5,29.83,ESE,113,0.0,0.0,90,0.00,,---,0.00,VWS V14.00,2013-04-12 10:25:00,
2013-04-12 05:26:00,49.2,46.4,29.83,ESE,113,0.0,0.0,90,0.00,,---,0.00,VWS V14.00,2013-04-12 10:26:00,
2013-04-12 05:27:00,49.2,46.4,29.83,ESE,113,0.0,0.0,90,0.00,,---,0.00,VWS V14.00,2013-04-12 10:27:00,
2013-04-12 05:28:00,49.0,46.2,29.83,ESE,113,5.0,5.0,90,0.00,,---,0.00,VWS V14.00,2013-04-12 10:28:00,
2013-04-12 05:29:00,48.9,46.1,29.84,ESE,113,7.0,7.0,90,0.00,,---,0.00,VWS V14.00,2013-04-12 10:29:00,
2013-04-12 05:30:00,48.9,46.1,29.83,ESE,113,5.0,5.0,90,0.00,,---,0.00,VWS V14.00,2013-04-12 10:30:00,
2013-04-12 05:31:00,48.9,46.1,29.83,ESE,113,8.0,8.0,90,0.00,,---,0.00,VWS V14.00,2013-04-12 10:31:00,
2013-04-12 05:32:00,48.9,46.1,29.84,ESE,113,6.0,8.0,90,0.00,,---,0.00,VWS V14.00,2013-04-12 10:32:00,
2013-04-12 05:33:00,48.9,46.1,29.84,ESE,113,6.0,7.0,90,0.00,,---,0.00,VWS V14.00,2013-04-12 10:33:00,
2013-04-12 05:34:00,48.8,46.0,29.84,ESE,113,4.0,5.0,90,0.00,,---,0.00,VWS V14.00,2013-04-12 10:34:00,
2013-04-12 05:35:00,48.9,46.1,29.84,ESE,113,5.0,6.0,90,0.00,,---,0.00,VWS V14.00,2013-04-12 10:35:00,
2013-04-12 05:36:00,48.8,46.0,29.84,ESE,113,5.0,5.0,90,0.00,,---,0.00,VWS V14.00,2013-04-12 10:36:00,
2013-04-12 05:37:00,48.8,46.0,29.84,ESE,113,4.0,5.0,90,0.00,,---,0.00,VWS V14.00,2013-04-12 10:37:00,
2013-04-12 05:38:00,48.8,46.0,29.84,ESE,113,4.0,5.0,90,0.00,,---,0.00,VWS V14.00,2013-04-12 10:38:00,
2013-04-12 05:39:00,48.7,45.9,29.84,ESE,113,4.0,5.0,90,0.00,,---,0.00,VWS V14.00,2013-04-12 10:39:00,
2013-04-12 05:40:00,48.7,45.9,29.84,ESE,113,4.0,5.0,90,0.00,,---,0.00,VWS V14.00,2013-04-12 10:40:00,
2013-04-12 05:41:00,48.6,45.8,29.84,ESE,113,4.0,5.0,90,0.00,,---,0.00,VWS V14.00,2013-04-12 10:41:00,
2013-04-12 05:42:00,48.7,45.9,29.84,ESE,113,4.0,5.0,90,0.00,,---,0.00,VWS V14.00,2013-04-12 10:42:00,
2013-04-12 05:43:00,48.7,45.9,29.84,ESE,113,4.0,5.0,90,0.00,,---,0.00,VWS V14.00,2013-04-12 10:43:00,
2013-04-12 05:44:00,48.9,46.1,29.84,ESE,113,4.0,5.0,90,0.00,,---,0.00,VWS V14.00,2013-04-12 10:44:00,
2013-04-12 05:45:00,48.8,46.0,29.84,ESE,113,4.0,5.0,90,0.00,,---,0.00,VWS V14.00,2013-04-12 10:45:00,
2013-04-12 05:46:00,48.8,46.0,29.84,ESE,113,4.0,5.0,90,0.00,,---,0.00,VWS V14.00,2013-04-12 10:46:00,
2013-04-12 05:47:00,48.8,46.0,29.84,ESE,113,5.0,5.0,90,0.00,,---,0.00,VWS V14.00,2013-04-12 10:47:00,
2013-04-12 05:48:00,48.9,46.1,29.84,ESE,113,5.0,5.0,90,0.00,,---,0.00,VWS V14.00,2013-04-12 10:48:00,
2013-04-12 05:49:00,48.9,46.1,29.84,ESE,113,0.0,2.0,90,0.00,,---,0.00,VWS V14.00,2013-04-12 10:49:00,
2013-04-12 05:50:00,48.9,46.1,29.84,ESE,113,4.0,5.0,90,0.00,,---,0.00,VWS V14.00,2013-04-12 10:50:00,
2013-04-12 05:51:00,48.9,46.1,29.84,ESE,113,2.0,4.0,90,0.00,,---,0.00,VWS V14.00,2013-04-12 10:51:00,
2013-04-12 05:52:00,48.9,46.1,29.84,ESE,113,2.0,4.0,90,0.00,,---,0.00,VWS V14.00,2013-04-12 10:52:00,
2013-04-12 05:53:00,48.9,46.1,29.84,ESE,113,0.0,2.0,90,0.00,,---,0.00,VWS V14.00,2013-04-12 10:53:00,
2013-04-12 05:54:00,48.8,46.0,29.84,ESE,113,0.0,0.0,90,0.00,,---,0.00,VWS V14.00,2013-04-12 10:54:00,
2013-04-12 05:55:00,48.8,46.0,29.84,ESE,113,0.0,0.0,90,0.00,,---,0.00,VWS V14.00,2013-04-12 10:55:00,
2013-04-12 05:56:00,48.8,46.0,29.84,ESE,113,0.0,0.0,90,0.00,,---,0.00,VWS V14.00,2013-04-12 10:56:00,
2013-04-12 05:57:00,48.8,46.0,29.84,ESE,113,0.0,0.0,90,0.00,,---,0.00,VWS V14.00,2013-04-12 10:57:00,
2013-04-12 05:58:00,48.8,46.0,29.84,ESE,113,0.0,0.0,90,0.00,,---,0.00,VWS V14.00,2013-04-12 10:58:00,
2013-04-12 05:59:00,48.7,45.9,29.84,ESE,113,0.0,0.0,90,0.00,,---,0.00,VWS V14.00,2013-04-12 10:59:00,
2013-04-12 06:00:00,48.7,45.9,29.84,ESE,113,0.0,0.0,90,0.00,,---,0.00,VWS V14.00,2013-04-12 11:00:00,
2013-04-12 06:01:00,48.7,45.9,29.84,ESE,113,0.0,0.0,90,0.00,,---,0.00,VWS V14.00,2013-04-12 11:01:00,
2013-04-12 06:02:00,48.7,45.9,29.84,ESE,113,0.0,0.0,90,0.00,,---,0.00,VWS V14.00,2013-04-12 11:02:00,
2013-04-12 06:03:00,48.7,45.9,29.84,ESE,113,0.0,0.0,90,0.00,,---,0.00,VWS V14.00,2013-04-12 11:03:00,
2013-04-12 06:04:00,48.7,46.2,29.84,ESE,113,0.0,0.0,91,0.00,,---,0.00,VWS V14.00,2013-04-12 11:04:00,
2013-04-12 06:05:00,48.7,46.2,29.84,ESE,113,0.0,0.0,91,0.00,,---,0.00,VWS V14.00,2013-04-12 11:05:00,
2013-04-12 06:06:00,48.7,46.2,29.84,ESE,113,0.0,0.0,91,0.00,,---,0.00,VWS V14.00,2013-04-12 11:06:00,
2013-04-12 06:07:00,48.7,46.2,29.84,ESE,113,0.0,0.0,91,0.00,,---,0.00,VWS V14.00,2013-04-12 11:07:00,
2013-04-12 06:08:00,48.7,46.2,29.84,ESE,113,0.0,0.0,91,0.00,,---,0.00,VWS V14.00,2013-04-12 11:08:00,
2013-04-12 06:09:00,48.7,45.9,29.84,ESE,113,0.0,0.0,90,0.00,,---,0.00,VWS V14.00,2013-04-12 11:09:00,
2013-04-12 06:10:00,48.7,46.2,29.84,ESE,113,0.0,2.0,91,0.00,,---,0.00,VWS V14.00,2013-04-12 11:10:00,
2013-04-12 06:11:00,48.7,45.9,29.84,ESE,113,0.0,0.0,90,0.00,,---,0.00,VWS V14.00,2013-04-12 11:11:00,
2013-04-12 06:12:00,48.7,45.9,29.84,ESE,113,0.0,0.0,90,0.00,,---,0.00,VWS V14.00,2013-04-12 11:12:00,
2013-04-12 06:13:00,48.7,45.9,29.84,ESE,113,0.0,0.0,90,0.00,,---,0.00,VWS V14.00,2013-04-12 11:13:00,
2013-04-12 06:14:00,48.5,45.7,29.85,ESE,113,0.0,0.0,90,0.00,,---,0.00,VWS V14.00,2013-04-12 11:14:00,
2013-04-12 06:15:00,48.6,45.8,29.85,ESE,113,0.0,0.0,90,0.00,,---,0.00,VWS V14.00,2013-04-12 11:15:00,
2013-04-12 06:16:00,48.6,45.8,29.85,ESE,113,0.0,0.0,90,0.00,,---,0.00,VWS V14.00,2013-04-12 11:16:00,
2013-04-12 06:17:00,48.6,45.8,29.85,ESE,113,0.0,0.0,90,0.00,,---,0.00,VWS V14.00,2013-04-12 11:17:00,
2013-04-12 06:18:00,48.5,45.7,29.85,ESE,113,0.0,0.0,90,0.00,,---,0.00,VWS V14.00,2013-04-12 11:18:00,
2013-04-12 06:19:00,48.5,46.0,29.85,ESE,113,0.0,0.0,91,0.00,,---,0.00,VWS V14.00,2013-04-12 11:19:00,
2013-04-12 06:20:00,48.5,45.7,29.85,ESE,113,0.0,0.0,90,0.00,,---,0.00,VWS V14.00,2013-04-12 11:20:00,
2013-04-12 06:21:00,48.5,46.0,29.85,ESE,113,0.0,0.0,91,0.00,,---,0.00,VWS V14.00,2013-04-12 11:21:00,
2013-04-12 06:22:00,48.5,46.0,29.85,ESE,113,0.0,0.0,91,0.00,,---,0.00,VWS V14.00,2013-04-12 11:22:00,
2013-04-12 06:23:00,48.6,46.1,29.85,ESE,113,0.0,0.0,91,0.00,,---,0.00,VWS V14.00,2013-04-12 11:23:00,
2013-04-12 06:24:00,48.6,46.1,29.85,ESE,113,0.0,0.0,91,0.00,,---,0.00,VWS V14.00,2013-04-12 11:24:00,
2013-04-12 06:25:00,48.6,46.1,29.85,ESE,113,0.0,0.0,91,0.00,,---,0.00,VWS V14.00,2013-04-12 11:25:00,
2013-04-12 06:26:00,48.6,46.1,29.85,ESE,113,0.0,0.0,91,0.00,,---,0.00,VWS V14.00,2013-04-12 11:26:00,
2013-04-12 06:27:00,48.6,46.1,29.85,ESE,113,0.0,0.0,91,0.00,,---,0.00,VWS V14.00,2013-04-12 11:27:00,
2013-04-12 06:28:00,48.6,46.1,29.85,ESE,113,0.0,0.0,91,0.00,,---,0.00,VWS V14.00,2013-04-12 11:28:00,
2013-04-12 06:29:00,48.8,46.3,29.85,ESE,113,0.0,0.0,91,0.00,,---,0.00,VWS V14.00,2013-04-12 11:29:00,
2013-04-12 06:30:00,48.7,46.2,29.85,ESE,113,0.0,0.0,91,0.00,,---,0.00,VWS V14.00,2013-04-12 11:30:00,
2013-04-12 06:31:00,48.7,46.2,29.85,ESE,113,0.0,0.0,91,0.00,,---,0.00,VWS V14.00,2013-04-12 11:31:00,
2013-04-12 06:32:00,48.8,46.3,29.85,ESE,113,0.0,0.0,91,0.00,,---,0.00,VWS V14.00,2013-04-12 11:32:00,
2013-04-12 06:33:00,48.8,46.3,29.85,ESE,113,0.0,0.0,91,0.00,,---,0.00,VWS V14.00,2013-04-12 11:33:00,
2013-04-12 06:34:00,49.1,46.6,29.85,ESE,113,0.0,0.0,91,0.00,,---,0.00,VWS V14.00,2013-04-12 11:34:00,
2013-04-12 06:35:00,49.0,46.5,29.85,ESE,113,0.0,0.0,91,0.00,,---,0.00,VWS V14.00,2013-04-12 11:35:00,
2013-04-12 06:36:00,49.1,46.6,29.85,ESE,113,0.0,0.0,91,0.00,,---,0.00,VWS V14.00,2013-04-12 11:36:00,
2013-04-12 06:37:00,49.1,46.6,29.85,ESE,113,0.0,0.0,91,0.00,,---,0.00,VWS V14.00,2013-04-12 11:37:00,
2013-04-12 06:38:00,49.1,46.6,29.85,ESE,113,0.0,0.0,91,0.00,,---,0.00,VWS V14.00,2013-04-12 11:38:00,
2013-04-12 06:39:00,49.1,46.6,29.86,ESE,113,0.0,0.0,91,0.00,,---,0.00,VWS V14.00,2013-04-12 11:39:00,
2013-04-12 06:40:00,49.2,46.7,29.85,ESE,113,0.0,0.0,91,0.00,,---,0.00,VWS V14.00,2013-04-12 11:40:00,
2013-04-12 06:41:00,49.1,46.6,29.85,ESE,113,0.0,0.0,91,0.00,,---,0.00,VWS V14.00,2013-04-12 11:41:00,
2013-04-12 06:42:00,49.1,46.6,29.86,ESE,113,0.0,0.0,91,0.00,,---,0.00,VWS V14.00,2013-04-12 11:42:00,
2013-04-12 06:43:00,49.1,46.6,29.86,ESE,113,0.0,0.0,91,0.00,,---,0.00,VWS V14.00,2013-04-12 11:43:00,
2013-04-12 06:44:00,48.9,46.4,29.86,ESE,113,0.0,0.0,91,0.00,,---,0.00,VWS V14.00,2013-04-12 11:44:00,
2013-04-12 06:45:00,49.0,46.5,29.86,ESE,113,0.0,0.0,91,0.00,,---,0.00,VWS V14.00,2013-04-12 11:45:00,
2013-04-12 06:46:00,49.0,46.5,29.86,ESE,113,0.0,0.0,91,0.00,,---,0.00,VWS V14.00,2013-04-12 11:46:00,
2013-04-12 06:47:00,48.9,46.4,29.86,ESE,113,0.0,0.0,91,0.00,,---,0.00,VWS V14.00,2013-04-12 11:47:00,
2013-04-12 06:48:00,48.9,46.4,29.86,ESE,113,0.0,0.0,91,0.00,,---,0.00,VWS V14.00,2013-04-12 11:48:00,
2013-04-12 06:49:00,48.7,45.9,29.87,ESE,113,0.0,0.0,90,0.00,,---,0.00,VWS V14.00,2013-04-12 11:49:00,
2013-04-12 06:50:00,48.8,46.3,29.86,ESE,113,0.0,0.0,91,0.00,,---,0.00,VWS V14.00,2013-04-12 11:50:00,
2013-04-12 06:51:00,48.8,46.3,29.87,ESE,113,0.0,0.0,91,0.00,,---,0.00,VWS V14.00,2013-04-12 11:51:00,
2013-04-12 06:52:00,48.7,45.9,29.87,ESE,113,0.0,0.0,90,0.00,,---,0.00,VWS V14.00,2013-04-12 11:52:00,
2013-04-12 06:53:00,48.7,46.2,29.87,ESE,113,0.0,0.0,91,0.00,,---,0.00,VWS V14.00,2013-04-12 11:53:00,
2013-04-12 06:54:00,48.6,46.1,29.87,ESE,113,0.0,0.0,91,0.00,,---,0.00,VWS V14.00,2013-04-12 11:54:00,
2013-04-12 06:55:00,48.6,46.1,29.87,ESE,113,0.0,0.0,91,0.00,,---,0.00,VWS V14.00,2013-04-12 11:55:00,
2013-04-12 06:56:00,48.6,46.1,29.87,ESE,113,0.0,0.0,91,0.00,,---,0.00,VWS V14.00,2013-04-12 11:56:00,
2013-04-12 06:57:00,48.6,46.1,29.87,ESE,113,0.0,0.0,91,0.00,,---,0.00,VWS V14.00,2013-04-12 11:57:00,
2013-04-12 06:58:00,48.6,46.1,29.87,ESE,113,0.0,0.0,91,0.00,,---,0.00,VWS V14.00,2013-04-12 11:58:00,
2013-04-12 06:59:00,49.0,46.8,29.87,ESE,113,0.0,0.0,92,0.00,,---,0.00,VWS V14.00,2013-04-12 11:59:00,
2013-04-12 07:00:00,48.8,46.3,29.87,ESE,113,0.0,0.0,91,0.00,,---,0.00,VWS V14.00,2013-04-12 12:00:00,
2013-04-12 07:01:00,48.8,46.6,29.87,ESE,113,0.0,0.0,92,0.00,,---,0.00,VWS V14.00,2013-04-12 12:01:00,
2013-04-12 07:02:00,49.0,46.8,29.87,ESE,113,0.0,0.0,92,0.00,,---,0.00,VWS V14.00,2013-04-12 12:02:00,
2013-04-12 07:03:00,49.0,46.8,29.87,ESE,113,0.0,0.0,92,0.00,,---,0.00,VWS V14.00,2013-04-12 12:03:00,
2013-04-12 07:04:00,49.4,46.9,29.87,ESE,113,0.0,0.0,91,0.00,,---,0.00,VWS V14.00,2013-04-12 12:04:00,
2013-04-12 07:05:00,49.3,47.1,29.87,ESE,113,0.0,0.0,92,0.00,,---,0.00,VWS V14.00,2013-04-12 12:05:00,
2013-04-12 07:06:00,49.3,46.8,29.87,ESE,113,0.0,0.0,91,0.00,,---,0.00,VWS V14.00,2013-04-12 12:06:00,
2013-04-12 07:07:00,49.4,46.9,29.87,ESE,113,0.0,0.0,91,0.00,,---,0.00,VWS V14.00,2013-04-12 12:07:00,
2013-04-12 07:08:00,49.4,46.9,29.87,ESE,113,0.0,0.0,91,0.00,,---,0.00,VWS V14.00,2013-04-12 12:08:00,
2013-04-12 07:09:00,49.4,46.9,29.87,ESE,113,0.0,0.0,91,0.00,,---,0.00,VWS V14.00,2013-04-12 12:09:00,
2013-04-12 07:10:00,49.5,47.3,29.87,ESE,113,0.0,0.0,92,0.00,,---,0.00,VWS V14.00,2013-04-12 12:10:00,
2013-04-12 07:11:00,49.5,47.0,29.87,ESE,113,0.0,0.0,91,0.00,,---,0.00,VWS V14.00,2013-04-12 12:11:00,
2013-04-12 07:12:00,49.4,46.9,29.87,ESE,113,0.0,0.0,91,0.00,,---,0.00,VWS V14.00,2013-04-12 12:12:00,
2013-04-12 07:13:00,49.3,46.8,29.87,ESE,113,0.0,0.0,91,0.00,,---,0.00,VWS V14.00,2013-04-12 12:13:00,
2013-04-12 07:14:00,49.0,46.5,29.88,ESE,113,0.0,0.0,91,0.00,,---,0.00,VWS V14.00,2013-04-12 12:14:00,
2013-04-12 07:15:00,49.1,46.6,29.87,ESE,113,0.0,0.0,91,0.00,,---,0.00,VWS V14.00,2013-04-12 12:15:00,
2013-04-12 07:16:00,49.0,46.5,29.88,ESE,113,0.0,0.0,91,0.00,,---,0.00,VWS V14.00,2013-04-12 12:16:00,
2013-04-12 07:17:00,49.0,46.5,29.88,ESE,113,0.0,0.0,91,0.00,,---,0.00,VWS V14.00,2013-04-12 12:17:00,
2013-04-12 07:18:00,49.0,46.5,29.88,ESE,113,0.0,0.0,91,0.00,,---,0.00,VWS V14.00,2013-04-12 12:18:00,
2013-04-12 07:19:00,49.0,46.5,29.88,ESE,113,0.0,0.0,91,0.00,,---,0.00,VWS V14.00,2013-04-12 12:19:00,
2013-04-12 07:20:00,49.0,46.5,29.88,ESE,113,0.0,0.0,91,0.00,,---,0.00,VWS V14.00,2013-04-12 12:20:00,
2013-04-12 07:21:00,49.0,46.5,29.88,ESE,113,0.0,0.0,91,0.00,,---,0.00,VWS V14.00,2013-04-12 12:21:00,
2013-04-12 07:22:00,49.0,46.5,29.88,ESE,113,0.0,0.0,91,0.00,,---,0.00,VWS V14.00,2013-04-12 12:22:00,
2013-04-12 07:23:00,49.0,46.5,29.88,ESE,113,0.0,0.0,91,0.00,,---,0.00,VWS V14.00,2013-04-12 12:23:00,
2013-04-12 07:24:00,49.2,47.0,29.88,ESE,113,0.0,0.0,92,0.00,,---,0.00,VWS V14.00,2013-04-12 12:24:00,
2013-04-12 07:25:00,49.1,46.9,29.88,ESE,113,0.0,0.0,92,0.00,,---,0.00,VWS V14.00,2013-04-12 12:25:00,
2013-04-12 07:26:00,49.1,46.6,29.88,ESE,113,0.0,0.0,91,0.00,,---,0.00,VWS V14.00,2013-04-12 12:26:00,
2013-04-12 07:27:00,49.2,47.0,29.88,ESE,113,0.0,0.0,92,0.00,,---,0.00,VWS V14.00,2013-04-12 12:27:00,
2013-04-12 07:28:00,49.2,47.0,29.88,ESE,113,0.0,0.0,92,0.00,,---,0.00,VWS V14.00,2013-04-12 12:28:00,
2013-04-12 07:29:00,49.4,47.2,29.88,ESE,113,0.0,0.0,92,0.00,,---,0.00,VWS V14.00,2013-04-12 12:29:00,
2013-04-12 07:30:00,49.3,47.1,29.88,ESE,113,0.0,0.0,92,0.00,,---,0.00,VWS V14.00,2013-04-12 12:30:00,
2013-04-12 07:31:00,49.3,46.8,29.88,ESE,113,0.0,0.0,91,0.00,,---,0.00,VWS V14.00,2013-04-12 12:31:00,
2013-04-12 07:32:00,49.4,47.2,29.88,ESE,113,0.0,0.0,92,0.00,,---,0.00,VWS V14.00,2013-04-12 12:32:00,
2013-04-12 07:33:00,49.4,47.2,29.88,ESE,113,0.0,0.0,92,0.00,,---,0.00,VWS V14.00,2013-04-12 12:33:00,
2013-04-12 07:34:00,49.7,47.5,29.88,ESE,113,6.0,7.0,92,0.00,,---,0.00,VWS V14.00,2013-04-12 12:34:00,
2013-04-12 07:35:00,49.6,47.4,29.88,ESE,113,0.0,0.0,92,0.00,,---,0.00,VWS V14.00,2013-04-12 12:35:00,
2013-04-12 07:36:00,49.7,47.5,29.88,ESE,113,6.0,7.0,92,0.00,,---,0.00,VWS V14.00,2013-04-12 12:36:00,
2013-04-12 07:37:00,49.7,47.5,29.88,ESE,113,6.0,7.0,92,0.00,,---,0.00,VWS V14.00,2013-04-12 12:37:00,
2013-04-12 07:38:00,49.8,47.6,29.88,ESE,113,6.0,7.0,92,0.00,,---,0.00,VWS V14.00,2013-04-12 12:38:00,
2013-04-12 07:39:00,50.1,47.9,29.89,ESE,113,6.0,6.0,92,0.00,,---,0.00,VWS V14.00,2013-04-12 12:39:00,
2013-04-12 07:40:00,49.9,47.7,29.89,ESE,113,6.0,6.0,92,0.00,,---,0.00,VWS V14.00,2013-04-12 12:40:00,
2013-04-12 07:41:00,50.0,47.8,29.89,ESE,113,6.0,6.0,92,0.00,,---,0.00,VWS V14.00,2013-04-12 12:41:00,
2013-04-12 07:42:00,50.1,47.9,29.89,ESE,113,6.0,6.0,92,0.00,,---,0.00,VWS V14.00,2013-04-12 12:42:00,
2013-04-12 07:43:00,50.2,48.0,29.89,ESE,113,6.0,6.0,92,0.00,,---,0.00,VWS V14.00,2013-04-12 12:43:00,
2013-04-12 07:44:00,50.6,48.4,29.89,ESE,113,5.0,5.0,92,0.00,,---,0.00,VWS V14.00,2013-04-12 12:44:00,
2013-04-12 07:45:00,50.4,48.2,29.89,ESE,113,5.0,6.0,92,0.00,,---,0.00,VWS V14.00,2013-04-12 12:45:00,
2013-04-12 07:46:00,50.5,48.3,29.89,ESE,113,5.0,7.0,92,0.00,,---,0.00,VWS V14.00,2013-04-12 12:46:00,
2013-04-12 07:47:00,50.6,48.4,29.89,ESE,113,4.0,6.0,92,0.00,,---,0.00,VWS V14.00,2013-04-12 12:47:00,
2013-04-12 07:48:00,50.7,48.5,29.89,ESE,113,5.0,5.0,92,0.00,,---,0.00,VWS V14.00,2013-04-12 12:48:00,
2013-04-12 07:49:00,51.2,49.0,29.89,ESE,113,5.0,6.0,92,0.00,,---,0.00,VWS V14.00,2013-04-12 12:49:00,
2013-04-12 07:50:00,50.9,48.7,29.89,ESE,113,4.0,5.0,92,0.00,,---,0.00,VWS V14.00,2013-04-12 12:50:00,
2013-04-12 07:51:00,51.0,48.8,29.89,ESE,113,5.0,6.0,92,0.00,,---,0.00,VWS V14.00,2013-04-12 12:51:00,
2013-04-12 07:52:00,51.2,49.0,29.89,ESE,113,5.0,6.0,92,0.00,,---,0.00,VWS V14.00,2013-04-12 12:52:00,
2013-04-12 07:53:00,51.3,49.1,29.89,ESE,113,5.0,6.0,92,0.00,,---,0.00,VWS V14.00,2013-04-12 12:53:00,
2013-04-12 07:54:00,51.7,49.5,29.89,ESE,113,6.0,7.0,92,0.00,,---,0.00,VWS V14.00,2013-04-12 12:54:00,
2013-04-12 07:55:00,51.5,49.3,29.89,ESE,113,5.0,8.0,92,0.00,,---,0.00,VWS V14.00,2013-04-12 12:55:00,
2013-04-12 07:56:00,51.6,49.4,29.89,ESE,113,6.0,8.0,92,0.00,,---,0.00,VWS V14.00,2013-04-12 12:56:00,
2013-04-12 07:57:00,51.7,49.5,29.89,ESE,113,7.0,7.0,92,0.00,,---,0.00,VWS V14.00,2013-04-12 12:57:00,
2013-04-12 07:58:00,51.8,49.6,29.89,ESE,113,6.0,8.0,92,0.00,,---,0.00,VWS V14.00,2013-04-12 12:58:00,
2013-04-12 07:59:00,52.4,50.2,29.89,ESE,113,6.0,8.0,92,0.00,,---,0.00,VWS V14.00,2013-04-12 12:59:00,
2013-04-12 08:00:00,52.0,49.8,29.89,ESE,113,8.0,8.0,92,0.00,,---,0.00,VWS V14.00,2013-04-12 13:00:00,
2013-04-12 08:02:00,52.1,49.8,29.89,ESE,113,7.0,7.0,92,0.00,,---,0.00,VWS V14.00,2013-04-12 13:02:00,
2013-04-12 08:03:00,52.6,50.3,29.89,ESE,113,6.0,8.0,92,0.00,,---,0.00,VWS V14.00,2013-04-12 13:03:00,
2013-04-12 08:04:00,53.3,51.0,29.89,ESE,113,7.0,9.0,92,0.00,,---,0.00,VWS V14.00,2013-04-12 13:04:00,
2013-04-12 08:05:00,53.0,50.7,29.89,ESE,113,7.0,9.0,92,0.00,,---,0.00,VWS V14.00,2013-04-12 13:05:00,
2013-04-12 08:06:00,53.1,50.8,29.89,ESE,113,7.0,8.0,92,0.00,,---,0.00,VWS V14.00,2013-04-12 13:06:00,
2013-04-12 08:07:00,53.3,51.0,29.89,ESE,113,8.0,9.0,92,0.00,,---,0.00,VWS V14.00,2013-04-12 13:07:00,
2013-04-12 08:08:00,53.5,51.2,29.89,ESE,112,9.0,9.0,92,0.00,,---,0.00,VWS V14.00,2013-04-12 13:08:00,
2013-04-12 08:09:00,54.2,51.9,29.89,ESE,106,12.0,12.0,92,0.00,,---,0.00,VWS V14.00,2013-04-12 13:09:00,
2013-04-12 08:10:00,53.8,51.5,29.89,ESE,110,11.0,12.0,92,0.00,,---,0.00,VWS V14.00,2013-04-12 13:10:00,
2013-04-12 08:11:00,54.0,51.7,29.89,ESE,108,11.0,12.0,92,0.00,,---,0.00,VWS V14.00,2013-04-12 13:11:00,
2013-04-12 08:12:00,54.2,51.9,29.89,ESE,106,9.0,12.0,92,0.00,,---,0.00,VWS V14.00,2013-04-12 13:12:00,
2013-04-12 08:13:00,54.3,52.0,29.89,ESE,105,11.0,12.0,92,0.00,,---,0.00,VWS V14.00,2013-04-12 13:13:00,
2013-04-12 08:14:00,55.0,52.4,29.89,ESE,102,8.0,9.0,91,0.00,,---,0.00,VWS V14.00,2013-04-12 13:14:00,
2013-04-12 08:15:00,54.6,52.0,29.89,ESE,104,8.0,12.0,91,0.00,,---,0.00,VWS V14.00,2013-04-12 13:15:00,
2013-04-12 08:16:00,54.8,52.2,29.89,ESE,103,11.0,12.0,91,0.00,,---,0.00,VWS V14.00,2013-04-12 13:16:00,
2013-04-12 08:17:00,55.0,52.4,29.89,ESE,102,9.0,12.0,91,0.00,,---,0.00,VWS V14.00,2013-04-12 13:17:00,
2013-04-12 08:18:00,55.1,52.5,29.89,ESE,102,9.0,12.0,91,0.00,,---,0.00,VWS V14.00,2013-04-12 13:18:00,
2013-04-12 08:19:00,55.9,53.3,29.89,East,88,11.0,12.0,91,0.00,,---,0.00,VWS V14.00,2013-04-12 13:19:00,
2013-04-12 08:20:00,55.4,52.8,29.89,ESE,102,8.0,12.0,91,0.00,,---,0.00,VWS V14.00,2013-04-12 13:20:00,
2013-04-12 08:21:00,55.6,53.0,29.89,East,96,9.0,13.0,91,0.00,,---,0.00,VWS V14.00,2013-04-12 13:21:00,
2013-04-12 08:22:00,55.8,53.2,29.89,East,88,12.0,12.0,91,0.00,,---,0.00,VWS V14.00,2013-04-12 13:22:00,
2013-04-12 08:23:00,56.0,53.4,29.89,East,88,11.0,12.0,91,0.00,,---,0.00,VWS V14.00,2013-04-12 13:23:00,
2013-04-12 08:24:00,56.7,53.8,29.89,East,85,10.0,12.0,90,0.00,,---,0.00,VWS V14.00,2013-04-12 13:24:00,
2013-04-12 08:25:00,56.3,53.4,29.89,East,86,8.0,11.0,90,0.00,,---,0.00,VWS V14.00,2013-04-12 13:25:00,
2013-04-12 08:26:00,56.4,53.5,29.89,East,86,8.0,10.0,90,0.00,,---,0.00,VWS V14.00,2013-04-12 13:26:00,
2013-04-12 08:27:00,56.7,53.8,29.89,East,86,11.0,11.0,90,0.00,,---,0.00,VWS V14.00,2013-04-12 13:27:00,
2013-04-12 08:28:00,56.8,53.9,29.89,East,84,8.0,12.0,90,0.00,,---,0.00,VWS V14.00,2013-04-12 13:28:00,
2013-04-12 08:29:00,57.3,54.1,29.89,NE,52,8.0,10.0,89,0.00,,---,0.00,VWS V14.00,2013-04-12 13:29:00,
2013-04-12 08:30:00,57.0,53.8,29.89,NE,52,8.0,10.0,89,0.00,,---,0.00,VWS V14.00,2013-04-12 13:30:00,
2013-04-12 08:31:00,57.2,54.0,29.89,NE,52,10.0,10.0,89,0.00,,---,0.00,VWS V14.00,2013-04-12 13:31:00,
2013-04-12 08:32:00,57.3,54.1,29.89,NE,52,10.0,11.0,89,0.00,,---,0.00,VWS V14.00,2013-04-12 13:32:00,
2013-04-12 08:33:00,57.4,54.2,29.89,NNE,22,9.0,10.0,89,0.00,,---,0.00,VWS V14.00,2013-04-12 13:33:00,
2013-04-12 08:34:00,57.7,54.2,29.89,NNE,32,9.0,10.0,88,0.00,,---,0.00,VWS V14.00,2013-04-12 13:34:00,
2013-04-12 08:35:00,57.6,54.1,29.89,NNE,32,10.0,11.0,88,0.00,,---,0.00,VWS V14.00,2013-04-12 13:35:00,
2013-04-12 08:36:00,57.6,54.1,29.89,NNE,32,9.0,10.0,88,0.00,,---,0.00,VWS V14.00,2013-04-12 13:36:00,
2013-04-12 08:37:00,57.7,54.2,29.89,NNE,32,8.0,10.0,88,0.00,,---,0.00,VWS V14.00,2013-04-12 13:37:00,
2013-04-12 08:38:00,57.7,54.2,29.89,NNE,32,10.0,10.0,88,0.00,,---,0.00,VWS V14.00,2013-04-12 13:38:00,
2013-04-12 08:39:00,58.1,54.3,29.89,NNE,32,9.0,10.0,87,0.00,,---,0.00,VWS V14.00,2013-04-12 13:39:00,
2013-04-12 08:40:00,57.9,54.4,29.89,NNE,32,10.0,10.0,88,0.00,,---,0.00,VWS V14.00,2013-04-12 13:40:00,
2013-04-12 08:41:00,58.0,54.5,29.89,NNE,32,8.0,11.0,88,0.00,,---,0.00,VWS V14.00,2013-04-12 13:41:00,
2013-04-12 08:42:00,58.1,54.3,29.89,NNE,32,9.0,10.0,87,0.00,,---,0.00,VWS V14.00,2013-04-12 13:42:00,
2013-04-12 08:43:00,58.2,54.3,29.89,NNE,32,9.0,11.0,87,0.00,,---,0.00,VWS V14.00,2013-04-12 13:43:00,
2013-04-12 08:44:00,58.7,54.8,29.89,NNE,33,9.0,10.0,87,0.00,,---,0.00,VWS V14.00,2013-04-12 13:44:00,
2013-04-12 08:45:00,58.5,54.7,29.89,NNE,33,8.0,11.0,87,0.00,,---,0.00,VWS V14.00,2013-04-12 13:45:00,
2013-04-12 08:46:00,58.6,54.8,29.89,NNE,33,10.0,11.0,87,0.00,,---,0.00,VWS V14.00,2013-04-12 13:46:00,
2013-04-12 08:47:00,58.6,54.8,29.89,NNE,33,10.0,11.0,87,0.00,,---,0.00,VWS V14.00,2013-04-12 13:47:00,
2013-04-12 08:48:00,58.7,54.5,29.89,NNE,33,8.0,10.0,86,0.00,,---,0.00,VWS V14.00,2013-04-12 13:48:00,
2013-04-12 08:49:00,59.0,55.1,29.89,NE,34,9.0,11.0,87,0.00,,---,0.00,VWS V14.00,2013-04-12 13:49:00,
2013-04-12 08:50:00,58.7,54.5,29.89,NE,34,10.0,11.0,86,0.00,,---,0.00,VWS V14.00,2013-04-12 13:50:00,
2013-04-12 08:51:00,58.8,54.6,29.89,NE,34,8.0,11.0,86,0.00,,---,0.00,VWS V14.00,2013-04-12 13:51:00,
2013-04-12 08:52:00,59.0,55.1,29.89,NE,34,11.0,11.0,87,0.00,,---,0.00,VWS V14.00,2013-04-12 13:52:00,
2013-04-12 08:53:00,59.1,54.9,29.89,NE,34,11.0,11.0,86,0.00,,---,0.00,VWS V14.00,2013-04-12 13:53:00,
2013-04-12 08:54:00,59.8,55.6,29.90,NE,37,9.0,10.0,86,0.00,,---,0.00,VWS V14.00,2013-04-12 13:54:00,
2013-04-12 08:55:00,59.4,55.5,29.89,NE,34,9.0,11.0,87,0.00,,---,0.00,VWS V14.00,2013-04-12 13:55:00,
2013-04-12 08:56:00,59.5,55.3,29.89,NE,37,12.0,12.0,86,0.00,,---,0.00,VWS V14.00,2013-04-12 13:56:00,
2013-04-12 08:57:00,59.7,55.5,29.90,NE,37,10.0,12.0,86,0.00,,---,0.00,VWS V14.00,2013-04-12 13:57:00,
2013-04-12 08:58:00,59.9,55.7,29.90,NE,37,11.0,12.0,86,0.00,,---,0.00,VWS V14.00,2013-04-12 13:58:00,
2013-04-12 08:59:00,60.5,56.3,29.89,NE,46,15.0,15.0,86,0.00,,---,0.00,VWS V14.00,2013-04-12 13:59:00,
2013-04-12 09:00:00,60.2,56.0,29.89,NE,38,8.0,12.0,86,0.00,,---,0.00,VWS V14.00,2013-04-12 14:00:00,
2013-04-12 09:01:00,60.4,56.2,29.89,NE,46,10.0,13.0,86,0.00,,---,0.00,VWS V14.00,2013-04-12 14:01:00,
2013-04-12 09:02:00,60.5,56.3,29.89,NE,46,12.0,13.0,86,0.00,,---,0.00,VWS V14.00,2013-04-12 14:02:00,
2013-04-12 09:03:00,60.5,56.0,29.89,NE,49,10.0,15.0,85,0.00,,---,0.00,VWS V14.00,2013-04-12 14:03:00,
2013-04-12 09:04:00,61.3,56.8,29.89,NE,43,12.0,12.0,85,0.00,,---,0.00,VWS V14.00,2013-04-12 14:04:00,
2013-04-12 09:05:00,60.8,56.3,29.89,NE,45,12.0,13.0,85,0.00,,---,0.00,VWS V14.00,2013-04-12 14:05:00,
2013-04-12 09:06:00,61.0,56.5,29.89,NE,43,12.0,13.0,85,0.00,,---,0.00,VWS V14.00,2013-04-12 14:06:00,
2013-04-12 09:07:00,61.2,56.7,29.89,NE,43,12.0,12.0,85,0.00,,---,0.00,VWS V14.00,2013-04-12 14:07:00,
2013-04-12 09:08:00,61.4,56.5,29.89,NE,43,10.0,13.0,84,0.00,,---,0.00,VWS V14.00,2013-04-12 14:08:00,
2013-04-12 09:09:00,62.2,57.3,29.90,NE,42,12.0,12.0,84,0.00,,---,0.00,VWS V14.00,2013-04-12 14:09:00,
2013-04-12 09:10:00,61.8,56.9,29.90,NE,44,11.0,12.0,84,0.00,,---,0.00,VWS V14.00,2013-04-12 14:10:00,
2013-04-12 09:11:00,62.0,57.1,29.90,NE,42,11.0,13.0,84,0.00,,---,0.00,VWS V14.00,2013-04-12 14:11:00,
2013-04-12 09:12:00,62.1,57.2,29.90,NE,42,10.0,13.0,84,0.00,,---,0.00,VWS V14.00,2013-04-12 14:12:00,
2013-04-12 09:13:00,62.3,57.4,29.90,NE,42,10.0,12.0,84,0.00,,---,0.00,VWS V14.00,2013-04-12 14:13:00,
2013-04-12 09:14:00,62.6,57.0,29.90,NE,41,10.0,10.0,82,0.00,,---,0.00,VWS V14.00,2013-04-12 14:14:00,
2013-04-12 09:15:00,62.5,56.9,29.90,NE,44,13.0,13.0,82,0.00,,---,0.00,VWS V14.00,2013-04-12 14:15:00,
2013-04-12 09:16:00,62.5,56.9,29.90,NE,42,12.0,13.0,82,0.00,,---,0.00,VWS V14.00,2013-04-12 14:16:00,
2013-04-12 09:17:00,62.6,57.0,29.90,NE,41,9.0,12.0,82,0.00,,---,0.00,VWS V14.00,2013-04-12 14:17:00,
2013-04-12 09:18:00,62.7,57.1,29.90,NE,42,11.0,11.0,82,0.00,,---,0.00,VWS V14.00,2013-04-12 14:18:00,
2013-04-12 09:19:00,63.3,57.7,29.90,NE,43,10.0,10.0,82,0.00,,---,0.00,VWS V14.00,2013-04-12 14:19:00,
2013-04-12 09:20:00,63.0,57.4,29.90,NE,42,11.0,11.0,82,0.00,,---,0.00,VWS V14.00,2013-04-12 14:20:00,
2013-04-12 09:21:00,63.1,57.5,29.90,NE,40,11.0,12.0,82,0.00,,---,0.00,VWS V14.00,2013-04-12 14:21:00,
2013-04-12 09:22:00,63.2,57.6,29.90,NE,42,9.0,11.0,82,0.00,,---,0.00,VWS V14.00,2013-04-12 14:22:00,
2013-04-12 09:23:00,63.4,57.8,29.90,NE,45,11.0,13.0,82,0.00,,---,0.00,VWS V14.00,2013-04-12 14:23:00,
2013-04-12 09:24:00,64.0,57.7,29.91,NE,45,11.0,12.0,80,0.00,,---,0.00,VWS V14.00,2013-04-12 14:24:00,
2013-04-12 09:25:00,63.7,57.8,29.90,NE,45,8.0,13.0,81,0.00,,---,0.00,VWS V14.00,2013-04-12 14:25:00,
2013-04-12 09:26:00,63.9,58.3,29.90,NE,45,11.0,11.0,82,0.00,,---,0.00,VWS V14.00,2013-04-12 14:26:00,
2013-04-12 09:27:00,64.0,57.7,29.90,NE,46,10.0,12.0,80,0.00,,---,0.00,VWS V14.00,2013-04-12 14:27:00,
2013-04-12 09:28:00,64.1,57.8,29.91,NE,44,8.0,12.0,80,0.00,,---,0.00,VWS V14.00,2013-04-12 14:28:00,
2013-04-12 09:29:00,64.6,58.0,29.91,NE,48,8.0,10.0,79,0.00,,---,0.00,VWS V14.00,2013-04-12 14:29:00,
2013-04-12 09:30:00,64.5,58.2,29.91,NE,46,12.0,14.0,80,0.00,,---,0.00,VWS V14.00,2013-04-12 14:30:00,
2013-04-12 09:31:00,64.5,58.2,29.91,NE,47,12.0,14.0,80,0.00,,---,0.00,VWS V14.00,2013-04-12 14:31:00,
2013-04-12 09:32:00,64.6,58.0,29.91,NE,48,10.0,13.0,79,0.00,,---,0.00,VWS V14.00,2013-04-12 14:32:00,
2013-04-12 09:33:00,64.6,58.0,29.91,NE,46,7.0,10.0,79,0.00,,---,0.00,VWS V14.00,2013-04-12 14:33:00,
2013-04-12 09:34:00,65.0,58.0,29.91,NE,49,13.0,13.0,78,0.00,,---,0.00,VWS V14.00,2013-04-12 14:34:00,
2013-04-12 09:35:00,64.7,57.7,29.91,NE,49,11.0,11.0,78,0.00,,---,0.00,VWS V14.00,2013-04-12 14:35:00,
2013-04-12 09:36:00,64.9,58.2,29.91,NE,49,8.0,11.0,79,0.00,,---,0.00,VWS V14.00,2013-04-12 14:36:00,
2013-04-12 09:37:00,65.0,58.0,29.91,NE,49,12.0,13.0,78,0.00,,---,0.00,VWS V14.00,2013-04-12 14:37:00,
2013-04-12 09:38:00,65.1,58.1,29.91,NE,50,8.0,13.0,78,0.00,,---,0.00,VWS V14.00,2013-04-12 14:38:00,
2013-04-12 09:39:00,65.5,58.1,29.91,NE,53,14.0,14.0,77,0.00,,---,0.00,VWS V14.00,2013-04-12 14:39:00,
2013-04-12 09:40:00,65.2,57.8,29.91,NE,51,11.0,12.0,77,0.00,,---,0.00,VWS V14.00,2013-04-12 14:40:00,
2013-04-12 09:41:00,65.3,58.3,29.91,NE,51,7.0,12.0,78,0.00,,---,0.00,VWS V14.00,2013-04-12 14:41:00,
2013-04-12 09:42:00,65.5,58.5,29.91,NE,53,12.0,13.0,78,0.00,,---,0.00,VWS V14.00,2013-04-12 14:42:00,
2013-04-12 09:43:00,65.6,58.2,29.91,NE,55,12.0,14.0,77,0.00,,---,0.00,VWS V14.00,2013-04-12 14:43:00,
2013-04-12 09:44:00,66.1,58.3,29.91,NE,55,10.0,11.0,76,0.00,,---,0.00,VWS V14.00,2013-04-12 14:44:00,
2013-04-12 09:45:00,65.9,58.5,29.91,NE,55,11.0,14.0,77,0.00,,---,0.00,VWS V14.00,2013-04-12 14:45:00,
2013-04-12 09:46:00,66.0,58.2,29.91,NE,55,11.0,12.0,76,0.00,,---,0.00,VWS V14.00,2013-04-12 14:46:00,
2013-04-12 09:47:00,66.1,58.7,29.91,NE,55,7.0,13.0,77,0.00,,---,0.00,VWS V14.00,2013-04-12 14:47:00,
2013-04-12 09:48:00,66.1,58.3,29.91,NE,55,11.0,12.0,76,0.00,,---,0.00,VWS V14.00,2013-04-12 14:48:00,
2013-04-12 09:49:00,66.5,58.3,29.91,ENE,59,11.0,11.0,75,0.00,,---,0.00,VWS V14.00,2013-04-12 14:49:00,
2013-04-12 09:50:00,66.5,58.7,29.91,NE,55,11.0,13.0,76,0.00,,---,0.00,VWS V14.00,2013-04-12 14:50:00,
2013-04-12 09:51:00,66.5,58.3,29.91,NE,56,8.0,12.0,75,0.00,,---,0.00,VWS V14.00,2013-04-12 14:51:00,
2013-04-12 09:52:00,66.5,58.3,29.91,ENE,59,11.0,13.0,75,0.00,,---,0.00,VWS V14.00,2013-04-12 14:52:00,
2013-04-12 09:53:00,66.5,58.3,29.91,ENE,59,8.0,11.0,75,0.00,,---,0.00,VWS V14.00,2013-04-12 14:53:00,
2013-04-12 09:54:00,66.7,58.2,29.91,ENE,67,11.0,12.0,74,0.00,,---,0.00,VWS V14.00,2013-04-12 14:54:00,
2013-04-12 09:55:00,66.8,58.3,29.91,ENE,65,14.0,14.0,74,0.00,,---,0.00,VWS V14.00,2013-04-12 14:55:00,
2013-04-12 09:56:00,66.8,58.3,29.91,ENE,65,11.0,14.0,74,0.00,,---,0.00,VWS V14.00,2013-04-12 14:56:00,
2013-04-12 09:57:00,66.7,58.2,29.91,ENE,67,11.0,13.0,74,0.00,,---,0.00,VWS V14.00,2013-04-12 14:57:00,
2013-04-12 09:58:00,66.5,57.6,29.91,ENE,67,14.0,14.0,73,0.00,,---,0.00,VWS V14.00,2013-04-12 14:58:00,
2013-04-12 09:59:00,66.5,58.0,29.91,ENE,67,11.0,11.0,74,0.00,,---,0.00,VWS V14.00,2013-04-12 14:59:00,
2013-04-12 10:00:00,66.4,57.9,29.91,ENE,67,10.0,10.0,74,0.00,,---,0.00,VWS V14.00,2013-04-12 15:00:00,
2013-04-12 10:01:00,66.4,58.2,29.91,ENE,67,11.0,12.0,75,0.00,,---,0.00,VWS V14.00,2013-04-12 15:01:00,
2013-04-12 10:02:00,66.4,57.9,29.91,ENE,67,10.0,12.0,74,0.00,,---,0.00,VWS V14.00,2013-04-12 15:02:00,
2013-04-12 10:03:00,66.6,58.4,29.91,ENE,65,8.0,13.0,75,0.00,,---,0.00,VWS V14.00,2013-04-12 15:03:00,
2013-04-12 10:04:00,67.0,58.5,29.91,ENE,66,8.0,11.0,74,0.00,,---,0.00,VWS V14.00,2013-04-12 15:04:00,
2013-04-12 10:05:00,66.7,58.2,29.91,ENE,66,7.0,10.0,74,0.00,,---,0.00,VWS V14.00,2013-04-12 15:05:00,
2013-04-12 10:06:00,66.8,58.3,29.91,ENE,66,11.0,11.0,74,0.00,,---,0.00,VWS V14.00,2013-04-12 15:06:00,
2013-04-12 10:07:00,67.0,58.5,29.91,ENE,66,8.0,14.0,74,0.00,,---,0.00,VWS V14.00,2013-04-12 15:07:00,
2013-04-12 10:08:00,67.2,58.6,29.91,ENE,66,10.0,11.0,74,0.00,,---,0.00,VWS V14.00,2013-04-12 15:08:00,
2013-04-12 10:09:00,67.5,58.5,29.91,ENE,61,10.0,12.0,73,0.00,,---,0.00,VWS V14.00,2013-04-12 15:09:00,
2013-04-12 10:10:00,67.3,58.4,29.91,ENE,67,12.0,12.0,73,0.00,,---,0.00,VWS V14.00,2013-04-12 15:10:00,
2013-04-12 10:11:00,67.4,58.5,29.91,ENE,60,8.0,17.0,73,0.00,,---,0.00,VWS V14.00,2013-04-12 15:11:00,
2013-04-12 10:12:00,67.4,58.1,29.91,ENE,61,12.0,12.0,72,0.00,,---,0.00,VWS V14.00,2013-04-12 15:12:00,
2013-04-12 10:13:00,67.6,58.7,29.91,ENE,62,11.0,13.0,73,0.00,,---,0.00,VWS V14.00,2013-04-12 15:13:00,
2013-04-12 10:14:00,67.7,58.7,29.91,NE,46,7.0,12.0,73,0.00,,---,0.00,VWS V14.00,2013-04-12 15:14:00,
2013-04-12 10:15:00,67.7,58.4,29.91,NE,45,8.0,12.0,72,0.00,,---,0.00,VWS V14.00,2013-04-12 15:15:00,
2013-04-12 10:16:00,67.6,58.3,29.91,NE,45,7.0,10.0,72,0.00,,---,0.00,VWS V14.00,2013-04-12 15:16:00,
2013-04-12 10:17:00,67.7,58.4,29.91,NE,45,11.0,11.0,72,0.00,,---,0.00,VWS V14.00,2013-04-12 15:17:00,
2013-04-12 10:18:00,67.8,58.8,29.91,NE,46,10.0,12.0,73,0.00,,---,0.00,VWS V14.00,2013-04-12 15:18:00,
2013-04-12 10:19:00,68.2,58.8,29.91,NE,47,10.0,11.0,72,0.00,,---,0.00,VWS V14.00,2013-04-12 15:19:00,
2013-04-12 10:20:00,68.1,58.7,29.91,NE,46,10.0,13.0,72,0.00,,---,0.00,VWS V14.00,2013-04-12 15:20:00,
2013-04-12 10:21:00,68.1,58.7,29.91,NE,46,7.0,10.0,72,0.00,,---,0.00,VWS V14.00,2013-04-12 15:21:00,
2013-04-12 10:22:00,68.2,58.8,29.91,NE,47,8.0,12.0,72,0.00,,---,0.00,VWS V14.00,2013-04-12 15:22:00,
2013-04-12 10:23:00,68.2,58.8,29.91,NE,48,10.0,11.0,72,0.00,,---,0.00,VWS V14.00,2013-04-12 15:23:00,
2013-04-12 10:24:00,68.3,58.5,29.91,ENE,63,7.0,7.0,71,0.00,,---,0.00,VWS V14.00,2013-04-12 15:24:00,
2013-04-12 10:25:00,68.3,58.5,29.91,ENE,63,8.0,14.0,71,0.00,,---,0.00,VWS V14.00,2013-04-12 15:25:00,
2013-04-12 10:26:00,68.3,58.5,29.91,ENE,63,6.0,8.0,71,0.00,,---,0.00,VWS V14.00,2013-04-12 15:26:00,
2013-04-12 10:27:00,68.3,58.5,29.91,ENE,63,6.0,10.0,71,0.00,,---,0.00,VWS V14.00,2013-04-12 15:27:00,
2013-04-12 10:28:00,68.4,58.6,29.91,ENE,63,8.0,11.0,71,0.00,,---,0.00,VWS V14.00,2013-04-12 15:28:00,
2013-04-12 10:29:00,68.7,58.9,29.91,ENE,66,14.0,14.0,71,0.00,,---,0.00,VWS V14.00,2013-04-12 15:29:00,
2013-04-12 10:30:00,68.5,58.7,29.91,ENE,63,7.0,10.0,71,0.00,,---,0.00,VWS V14.00,2013-04-12 15:30:00,
2013-04-12 10:31:00,68.7,58.9,29.91,ENE,66,14.0,14.0,71,0.00,,---,0.00,VWS V14.00,2013-04-12 15:31:00,
2013-04-12 10:32:00,68.7,58.9,29.91,ENE,66,13.0,15.0,71,0.00,,---,0.00,VWS V14.00,2013-04-12 15:32:00,
2013-04-12 10:33:00,68.7,58.5,29.91,ENE,66,7.0,14.0,70,0.00,,---,0.00,VWS V14.00,2013-04-12 15:33:00,
2013-04-12 10:34:00,68.5,58.7,29.91,ENE,71,6.0,10.0,71,0.00,,---,0.00,VWS V14.00,2013-04-12 15:34:00,
2013-04-12 10:35:00,68.5,58.3,29.91,ENE,67,13.0,13.0,70,0.00,,---,0.00,VWS V14.00,2013-04-12 15:35:00,
2013-04-12 10:36:00,68.4,58.2,29.91,ENE,68,5.0,15.0,70,0.00,,---,0.00,VWS V14.00,2013-04-12 15:36:00,
2013-04-12 10:37:00,68.5,58.7,29.91,ENE,71,10.0,13.0,71,0.00,,---,0.00,VWS V14.00,2013-04-12 15:37:00,
2013-04-12 10:38:00,68.7,58.9,29.91,ENE,77,7.0,14.0,71,0.00,,---,0.00,VWS V14.00,2013-04-12 15:38:00,
2013-04-12 10:39:00,69.0,59.2,29.92,ENE,74,7.0,11.0,71,0.00,,---,0.00,VWS V14.00,2013-04-12 15:39:00,
2013-04-12 10:40:00,68.8,58.6,29.91,ENE,73,11.0,13.0,70,0.00,,---,0.00,VWS V14.00,2013-04-12 15:40:00,
2013-04-12 10:41:00,68.9,59.1,29.91,ENE,71,10.0,15.0,71,0.00,,---,0.00,VWS V14.00,2013-04-12 15:41:00,
2013-04-12 10:42:00,69.0,59.2,29.92,ENE,74,11.0,11.0,71,0.00,,---,0.00,VWS V14.00,2013-04-12 15:42:00,
2013-04-12 10:43:00,69.1,58.5,29.92,ENE,76,11.0,11.0,69,0.00,,---,0.00,VWS V14.00,2013-04-12 15:43:00,
2013-04-12 10:44:00,69.7,59.1,29.91,ENE,75,10.0,11.0,69,0.00,,---,0.00,VWS V14.00,2013-04-12 15:44:00,
2013-04-12 10:45:00,69.2,58.6,29.91,ENE,76,10.0,10.0,69,0.00,,---,0.00,VWS V14.00,2013-04-12 15:45:00,
2013-04-12 10:46:00,69.5,59.3,29.91,ENE,76,14.0,15.0,70,0.00,,---,0.00,VWS V14.00,2013-04-12 15:46:00,
2013-04-12 10:47:00,69.7,59.5,29.91,ENE,75,11.0,14.0,70,0.00,,---,0.00,VWS V14.00,2013-04-12 15:47:00,
2013-04-12 10:48:00,69.8,59.2,29.91,ENE,73,11.0,13.0,69,0.00,,---,0.00,VWS V14.00,2013-04-12 15:48:00,
2013-04-12 10:49:00,69.7,59.1,29.91,ENE,77,10.0,10.0,69,0.00,,---,0.00,VWS V14.00,2013-04-12 15:49:00,
2013-04-12 10:50:00,69.7,59.1,29.91,ENE,71,10.0,11.0,69,0.00,,---,0.00,VWS V14.00,2013-04-12 15:50:00,
2013-04-12 10:51:00,69.7,59.1,29.91,ENE,71,7.0,10.0,69,0.00,,---,0.00,VWS V14.00,2013-04-12 15:51:00,
2013-04-12 10:52:00,69.6,59.0,29.91,ENE,77,8.0,12.0,69,0.00,,---,0.00,VWS V14.00,2013-04-12 15:52:00,
2013-04-12 10:53:00,69.9,59.3,29.91,East,79,10.0,12.0,69,0.00,,---,0.00,VWS V14.00,2013-04-12 15:53:00,
2013-04-12 10:54:00,70.4,59.3,29.91,East,82,13.0,13.0,68,0.00,,---,0.00,VWS V14.00,2013-04-12 15:54:00,
2013-04-12 10:55:00,70.1,59.1,29.91,East,86,8.0,12.0,68,0.00,,---,0.00,VWS V14.00,2013-04-12 15:55:00,
2013-04-12 10:56:00,70.1,58.7,29.91,East,86,10.0,10.0,67,0.00,,---,0.00,VWS V14.00,2013-04-12 15:56:00,
2013-04-12 10:57:00,70.4,59.3,29.91,East,83,13.0,13.0,68,0.00,,---,0.00,VWS V14.00,2013-04-12 15:57:00,
2013-04-12 10:58:00,70.5,59.4,29.91,ENE,78,8.0,14.0,68,0.00,,---,0.00,VWS V14.00,2013-04-12 15:58:00,
2013-04-12 10:59:00,70.4,58.9,29.91,East,80,5.0,8.0,67,0.00,,---,0.00,VWS V14.00,2013-04-12 15:59:00,
2013-04-12 11:00:00,70.5,59.0,29.91,ENE,78,10.0,14.0,67,0.00,,---,0.00,VWS V14.00,2013-04-12 16:00:00,
2013-04-12 11:01:00,70.5,59.4,29.91,ENE,78,8.0,11.0,68,0.00,,---,0.00,VWS V14.00,2013-04-12 16:01:00,
2013-04-12 11:02:00,70.5,59.0,29.91,East,80,8.0,13.0,67,0.00,,---,0.00,VWS V14.00,2013-04-12 16:02:00,
2013-04-12 11:03:00,70.3,58.4,29.91,East,80,6.0,11.0,66,0.00,,---,0.00,VWS V14.00,2013-04-12 16:03:00,
2013-04-12 11:04:00,70.8,59.3,29.91,ENE,70,8.0,8.0,67,0.00,,---,0.00,VWS V14.00,2013-04-12 16:04:00,
2013-04-12 11:05:00,70.5,59.0,29.91,ENE,73,10.0,15.0,67,0.00,,---,0.00,VWS V14.00,2013-04-12 16:05:00,
2013-04-12 11:06:00,70.5,59.0,29.91,ENE,74,8.0,12.0,67,0.00,,---,0.00,VWS V14.00,2013-04-12 16:06:00,
2013-04-12 11:07:00,70.7,59.2,29.91,ENE,70,8.0,20.0,67,0.00,,---,0.00,VWS V14.00,2013-04-12 16:07:00,
2013-04-12 11:08:00,71.1,59.6,29.91,ENE,71,10.0,12.0,67,0.00,,---,0.00,VWS V14.00,2013-04-12 16:08:00,
2013-04-12 11:09:00,71.4,59.0,29.91,ENE,74,7.0,11.0,65,0.00,,---,0.00,VWS V14.00,2013-04-12 16:09:00,
2013-04-12 11:10:00,71.5,59.6,29.91,ENE,71,8.0,12.0,66,0.00,,---,0.00,VWS V14.00,2013-04-12 16:10:00,
2013-04-12 11:11:00,71.5,59.6,29.91,ENE,71,10.0,11.0,66,0.00,,---,0.00,VWS V14.00,2013-04-12 16:11:00,
2013-04-12 11:12:00,71.4,59.0,29.91,ENE,74,11.0,15.0,65,0.00,,---,0.00,VWS V14.00,2013-04-12 16:12:00,
2013-04-12 11:13:00,71.4,59.0,29.91,East,82,14.0,14.0,65,0.00,,---,0.00,VWS V14.00,2013-04-12 16:13:00,
2013-04-12 11:14:00,71.2,58.4,29.91,East,84,6.0,6.0,64,0.00,,---,0.00,VWS V14.00,2013-04-12 16:14:00,
2013-04-12 11:15:00,71.3,58.1,29.91,East,84,4.0,11.0,63,0.00,,---,0.00,VWS V14.00,2013-04-12 16:15:00,
2013-04-12 11:16:00,71.3,58.5,29.91,East,84,7.0,10.0,64,0.00,,---,0.00,VWS V14.00,2013-04-12 16:16:00,
2013-04-12 11:17:00,71.2,58.4,29.91,East,84,4.0,10.0,64,0.00,,---,0.00,VWS V14.00,2013-04-12 16:17:00,
2013-04-12 11:18:00,71.1,58.3,29.91,East,84,11.0,11.0,64,0.00,,---,0.00,VWS V14.00,2013-04-12 16:18:00,
2013-04-12 11:19:00,71.6,59.2,29.91,East,83,12.0,15.0,65,0.00,,---,0.00,VWS V14.00,2013-04-12 16:19:00,
2013-04-12 11:20:00,71.3,58.5,29.91,East,84,8.0,12.0,64,0.00,,---,0.00,VWS V14.00,2013-04-12 16:20:00,
2013-04-12 11:21:00,71.3,58.5,29.91,East,84,11.0,11.0,64,0.00,,---,0.00,VWS V14.00,2013-04-12 16:21:00,
2013-04-12 11:22:00,71.6,59.7,29.91,East,84,15.0,15.0,66,0.00,,---,0.00,VWS V14.00,2013-04-12 16:22:00,
2013-04-12 11:23:00,71.8,59.4,29.91,ENE,78,11.0,15.0,65,0.00,,---,0.00,VWS V14.00,2013-04-12 16:23:00,
2013-04-12 11:24:00,71.8,59.0,29.92,ENE,78,7.0,8.0,64,0.00,,---,0.00,VWS V14.00,2013-04-12 16:24:00,
2013-04-12 11:25:00,71.9,59.1,29.91,ENE,78,7.0,11.0,64,0.00,,---,0.00,VWS V14.00,2013-04-12 16:25:00,
2013-04-12 11:26:00,71.8,58.5,29.91,ENE,78,6.0,8.0,63,0.00,,---,0.00,VWS V14.00,2013-04-12 16:26:00,
2013-04-12 11:27:00,71.8,59.0,29.91,ENE,78,8.0,13.0,64,0.00,,---,0.00,VWS V14.00,2013-04-12 16:27:00,
2013-04-12 11:28:00,71.8,59.4,29.92,ENE,76,13.0,13.0,65,0.00,,---,0.00,VWS V14.00,2013-04-12 16:28:00,
2013-04-12 11:29:00,71.6,58.3,29.92,ENE,76,10.0,10.0,63,0.00,,---,0.00,VWS V14.00,2013-04-12 16:29:00,
2013-04-12 11:30:00,71.8,59.0,29.92,East,79,12.0,15.0,64,0.00,,---,0.00,VWS V14.00,2013-04-12 16:30:00,
2013-04-12 11:31:00,71.7,58.9,29.92,ENE,78,5.0,12.0,64,0.00,,---,0.00,VWS V14.00,2013-04-12 16:31:00,
2013-04-12 11:32:00,71.7,58.5,29.92,ENE,78,10.0,10.0,63,0.00,,---,0.00,VWS V14.00,2013-04-12 16:32:00,
2013-04-12 11:33:00,71.5,58.7,29.92,ENE,77,11.0,11.0,64,0.00,,---,0.00,VWS V14.00,2013-04-12 16:33:00,
2013-04-12 11:34:00,72.5,59.6,29.91,ENE,74,6.0,7.0,64,0.00,,---,0.00,VWS V14.00,2013-04-12 16:34:00,
2013-04-12 11:35:00,71.6,59.2,29.91,ENE,78,13.0,13.0,65,0.00,,---,0.00,VWS V14.00,2013-04-12 16:35:00,
2013-04-12 11:36:00,72.1,60.1,29.91,ENE,76,8.0,14.0,66,0.00,,---,0.00,VWS V14.00,2013-04-12 16:36:00,
2013-04-12 11:37:00,72.5,59.6,29.91,ENE,74,7.0,13.0,64,0.00,,---,0.00,VWS V14.00,2013-04-12 16:37:00,
2013-04-12 11:38:00,72.8,59.9,29.91,East,82,11.0,14.0,64,0.00,,---,0.00,VWS V14.00,2013-04-12 16:38:00,
2013-04-12 11:39:00,72.2,59.4,29.91,East,79,11.0,13.0,64,0.00,,---,0.00,VWS V14.00,2013-04-12 16:39:00,
2013-04-12 11:40:00,72.5,58.8,29.91,East,82,6.0,12.0,62,0.00,,---,0.00,VWS V14.00,2013-04-12 16:40:00,
2013-04-12 11:41:00,72.2,58.9,29.91,East,82,5.0,10.0,63,0.00,,---,0.00,VWS V14.00,2013-04-12 16:41:00,
2013-04-12 11:42:00,72.2,59.4,29.91,East,79,13.0,13.0,64,0.00,,---,0.00,VWS V14.00,2013-04-12 16:42:00,
2013-04-12 11:43:00,72.4,59.1,29.91,ENE,78,14.0,14.0,63,0.00,,---,0.00,VWS V14.00,2013-04-12 16:43:00,
2013-04-12 11:44:00,73.0,59.7,29.91,East,86,13.0,14.0,63,0.00,,---,0.00,VWS V14.00,2013-04-12 16:44:00,
2013-04-12 11:45:00,72.9,59.6,29.91,East,79,7.0,13.0,63,0.00,,---,0.00,VWS V14.00,2013-04-12 16:45:00,
2013-04-12 11:46:00,73.0,59.7,29.91,East,80,8.0,14.0,63,0.00,,---,0.00,VWS V14.00,2013-04-12 16:46:00,
2013-04-12 11:47:00,72.9,59.6,29.91,East,86,14.0,15.0,63,0.00,,---,0.00,VWS V14.00,2013-04-12 16:47:00,
2013-04-12 11:48:00,73.1,58.9,29.91,East,86,10.0,14.0,61,0.00,,---,0.00,VWS V14.00,2013-04-12 16:48:00,
2013-04-12 11:49:00,72.8,58.6,29.90,East,84,10.0,12.0,61,0.00,,---,0.00,VWS V14.00,2013-04-12 16:49:00,
2013-04-12 11:50:00,73.1,58.9,29.91,East,84,12.0,18.0,61,0.00,,---,0.00,VWS V14.00,2013-04-12 16:50:00,
2013-04-12 11:51:00,73.0,58.8,29.90,East,84,10.0,12.0,61,0.00,,---,0.00,VWS V14.00,2013-04-12 16:51:00,
2013-04-12 11:52:00,72.9,58.7,29.90,East,84,11.0,15.0,61,0.00,,---,0.00,VWS V14.00,2013-04-12 16:52:00,
2013-04-12 11:53:00,72.9,59.1,29.90,East,84,10.0,12.0,62,0.00,,---,0.00,VWS V14.00,2013-04-12 16:53:00,
2013-04-12 11:54:00,73.2,59.4,29.90,East,80,7.0,10.0,62,0.00,,---,0.00,VWS V14.00,2013-04-12 16:54:00,
2013-04-12 11:55:00,72.9,58.7,29.90,East,84,10.0,10.0,61,0.00,,---,0.00,VWS V14.00,2013-04-12 16:55:00,
2013-04-12 11:56:00,73.1,59.3,29.90,ENE,74,10.0,15.0,62,0.00,,---,0.00,VWS V14.00,2013-04-12 16:56:00,
2013-04-12 11:57:00,73.2,59.4,29.90,East,80,10.0,14.0,62,0.00,,---,0.00,VWS V14.00,2013-04-12 16:57:00,
2013-04-12 11:58:00,73.3,59.5,29.90,ENE,73,12.0,14.0,62,0.00,,---,0.00,VWS V14.00,2013-04-12 16:58:00,
2013-04-12 11:59:00,73.5,59.2,29.90,East,98,13.0,14.0,61,0.00,,---,0.00,VWS V14.00,2013-04-12 16:59:00,
2013-04-12 12:00:00,73.6,59.8,29.90,East,79,10.0,12.0,62,0.00,,---,0.00,VWS V14.00,2013-04-12 17:00:00,
2013-04-12 12:01:00,73.6,59.3,29.90,East,84,10.0,11.0,61,0.00,,---,0.00,VWS V14.00,2013-04-12 17:01:00,
2013-04-12 12:02:00,73.6,59.3,29.90,East,96,13.0,19.0,61,0.00,,---,0.00,VWS V14.00,2013-04-12 17:02:00,
2013-04-12 12:03:00,73.6,58.9,29.90,East,97,13.0,15.0,60,0.00,,---,0.00,VWS V14.00,2013-04-12 17:03:00,
2013-04-12 12:04:00,73.4,58.7,29.90,East,96,11.0,13.0,60,0.00,,---,0.00,VWS V14.00,2013-04-12 17:04:00,
2013-04-12 12:05:00,73.5,58.3,29.90,East,97,7.0,11.0,59,0.00,,---,0.00,VWS V14.00,2013-04-12 17:05:00,
2013-04-12 12:06:00,73.5,58.8,29.90,East,96,12.0,12.0,60,0.00,,---,0.00,VWS V14.00,2013-04-12 17:06:00,
2013-04-12 12:07:00,73.4,58.7,29.90,East,96,11.0,13.0,60,0.00,,---,0.00,VWS V14.00,2013-04-12 17:07:00,
2013-04-12 12:08:00,73.3,58.6,29.90,East,95,13.0,14.0,60,0.00,,---,0.00,VWS V14.00,2013-04-12 17:08:00,
2013-04-12 12:09:00,73.5,58.8,29.90,East,90,18.0,18.0,60,0.00,,---,0.00,VWS V14.00,2013-04-12 17:09:00,
2013-04-12 12:10:00,73.5,58.8,29.90,East,92,12.0,15.0,60,0.00,,---,0.00,VWS V14.00,2013-04-12 17:10:00,
2013-04-12 12:11:00,73.4,58.7,29.90,East,92,8.0,12.0,60,0.00,,---,0.00,VWS V14.00,2013-04-12 17:11:00,
2013-04-12 12:12:00,73.5,58.8,29.90,East,92,13.0,13.0,60,0.00,,---,0.00,VWS V14.00,2013-04-12 17:12:00,
2013-04-12 12:13:00,73.7,59.4,29.90,East,90,9.0,18.0,61,0.00,,---,0.00,VWS V14.00,2013-04-12 17:13:00,
2013-04-12 12:14:00,74.1,59.8,29.90,East,88,13.0,15.0,61,0.00,,---,0.00,VWS V14.00,2013-04-12 17:14:00,
2013-04-12 12:15:00,73.8,59.1,29.90,East,94,13.0,16.0,60,0.00,,---,0.00,VWS V14.00,2013-04-12 17:15:00,
2013-04-12 12:16:00,73.8,59.5,29.90,East,94,9.0,13.0,61,0.00,,---,0.00,VWS V14.00,2013-04-12 17:16:00,
2013-04-12 12:17:00,74.0,59.7,29.90,East,90,14.0,16.0,61,0.00,,---,0.00,VWS V14.00,2013-04-12 17:17:00,
2013-04-12 12:18:00,74.4,59.6,29.90,East,86,11.0,15.0,60,0.00,,---,0.00,VWS V14.00,2013-04-12 17:18:00,
2013-04-12 12:19:00,74.8,59.5,29.90,East,83,11.0,14.0,59,0.00,,---,0.00,VWS V14.00,2013-04-12 17:19:00,
2013-04-12 12:20:00,74.6,58.9,29.89,ENE,77,13.0,13.0,58,0.00,,---,0.00,VWS V14.00,2013-04-12 17:20:00,
2013-04-12 12:21:00,74.6,59.3,29.90,ENE,78,10.0,17.0,59,0.00,,---,0.00,VWS V14.00,2013-04-12 17:21:00,
2013-04-12 12:22:00,74.8,59.5,29.90,East,79,11.0,13.0,59,0.00,,---,0.00,VWS V14.00,2013-04-12 17:22:00,
2013-04-12 12:23:00,74.8,59.0,29.90,East,83,6.0,14.0,58,0.00,,---,0.00,VWS V14.00,2013-04-12 17:23:00,
2013-04-12 12:24:00,75.0,60.2,29.89,ENE,74,15.0,15.0,60,0.00,,---,0.00,VWS V14.00,2013-04-12 17:24:00,
2013-04-12 12:25:00,74.4,58.7,29.90,ENE,76,11.0,13.0,58,0.00,,---,0.00,VWS V14.00,2013-04-12 17:25:00,
2013-04-12 12:26:00,74.6,59.8,29.89,ENE,75,8.0,12.0,60,0.00,,---,0.00,VWS V14.00,2013-04-12 17:26:00,
2013-04-12 12:27:00,74.9,60.1,29.89,ENE,75,10.0,14.0,60,0.00,,---,0.00,VWS V14.00,2013-04-12 17:27:00,
2013-04-12 12:28:00,75.3,60.0,29.89,ENE,77,13.0,15.0,59,0.00,,---,0.00,VWS V14.00,2013-04-12 17:28:00,
2013-04-12 12:29:00,76.0,58.7,29.89,East,80,19.0,19.0,55,0.00,,---,0.00,VWS V14.00,2013-04-12 17:29:00,
2013-04-12 12:30:00,75.6,59.3,29.89,ENE,77,10.0,12.0,57,0.00,,---,0.00,VWS V14.00,2013-04-12 17:30:00,
2013-04-12 12:31:00,76.0,59.7,29.89,ENE,75,12.0,12.0,57,0.00,,---,0.00,VWS V14.00,2013-04-12 17:31:00,
2013-04-12 12:32:00,76.0,58.7,29.89,ENE,76,15.0,15.0,55,0.00,,---,0.00,VWS V14.00,2013-04-12 17:32:00,
2013-04-12 12:33:00,76.1,59.8,29.89,East,82,11.0,19.0,57,0.00,,---,0.00,VWS V14.00,2013-04-12 17:33:00,
2013-04-12 12:34:00,75.6,58.8,29.89,ENE,75,6.0,7.0,56,0.00,,---,0.00,VWS V14.00,2013-04-12 17:34:00,
2013-04-12 12:35:00,76.0,59.2,29.89,East,79,11.0,13.0,56,0.00,,---,0.00,VWS V14.00,2013-04-12 17:35:00,
2013-04-12 12:36:00,75.8,59.5,29.89,ENE,78,6.0,15.0,57,0.00,,---,0.00,VWS V14.00,2013-04-12 17:36:00,
2013-04-12 12:37:00,75.6,58.8,29.89,ENE,75,6.0,14.0,56,0.00,,---,0.00,VWS V14.00,2013-04-12 17:37:00,
2013-04-12 12:38:00,75.5,59.2,29.89,ENE,74,8.0,11.0,57,0.00,,---,0.00,VWS V14.00,2013-04-12 17:38:00,
2013-04-12 12:39:00,75.6,57.3,29.89,East,96,14.0,14.0,53,0.00,,---,0.00,VWS V14.00,2013-04-12 17:39:00,
2013-04-12 12:40:00,75.6,57.8,29.89,East,96,15.0,18.0,54,0.00,,---,0.00,VWS V14.00,2013-04-12 17:40:00,
2013-04-12 12:41:00,75.8,57.5,29.89,East,94,13.0,19.0,53,0.00,,---,0.00,VWS V14.00,2013-04-12 17:41:00,
2013-04-12 12:42:00,75.7,57.4,29.89,East,94,8.0,15.0,53,0.00,,---,0.00,VWS V14.00,2013-04-12 17:42:00,
2013-04-12 12:43:00,75.6,57.3,29.89,East,96,9.0,14.0,53,0.00,,---,0.00,VWS V14.00,2013-04-12 17:43:00,
2013-04-12 12:44:00,75.6,57.3,29.89,East,82,10.0,11.0,53,0.00,,---,0.00,VWS V14.00,2013-04-12 17:44:00,
2013-04-12 12:45:00,75.3,57.0,29.89,East,96,13.0,18.0,53,0.00,,---,0.00,VWS V14.00,2013-04-12 17:45:00,
2013-04-12 12:47:00,75.6,57.3,29.89,East,82,11.0,15.0,53,0.00,,---,0.00,VWS V14.00,2013-04-12 17:47:00,
2013-04-12 12:48:00,75.6,57.3,29.89,East,82,8.0,13.0,53,0.00,,---,0.00,VWS V14.00,2013-04-12 17:48:00,
2013-04-12 12:49:00,75.8,56.9,29.89,ESE,108,9.0,11.0,52,0.00,,---,0.00,VWS V14.00,2013-04-12 17:49:00,
2013-04-12 12:50:00,75.8,57.5,29.89,East,88,11.0,12.0,53,0.00,,---,0.00,VWS V14.00,2013-04-12 17:50:00,
2013-04-12 12:51:00,75.8,56.9,29.89,ESE,108,13.0,18.0,52,0.00,,---,0.00,VWS V14.00,2013-04-12 17:51:00,
2013-04-12 12:52:00,75.8,56.9,29.89,ESE,107,9.0,15.0,52,0.00,,---,0.00,VWS V14.00,2013-04-12 17:52:00,
2013-04-12 12:53:00,75.8,56.9,29.89,ESE,111,11.0,15.0,52,0.00,,---,0.00,VWS V14.00,2013-04-12 17:53:00,
2013-04-12 12:54:00,75.8,56.4,29.89,ESE,111,9.0,13.0,51,0.00,,---,0.00,VWS V14.00,2013-04-12 17:54:00,
2013-04-12 12:55:00,76.7,57.8,29.88,ESE,107,8.0,16.0,52,0.00,,---,0.00,VWS V14.00,2013-04-12 17:55:00,
2013-04-12 12:56:00,76.3,57.4,29.88,ESE,111,15.0,16.0,52,0.00,,---,0.00,VWS V14.00,2013-04-12 17:56:00,
2013-04-12 12:57:00,76.6,57.7,29.88,ESE,111,15.0,19.0,52,0.00,,---,0.00,VWS V14.00,2013-04-12 17:57:00,
2013-04-12 12:58:00,76.7,57.2,29.88,ESE,107,7.0,16.0,51,0.00,,---,0.00,VWS V14.00,2013-04-12 17:58:00,
2013-04-12 12:59:00,76.7,57.8,29.88,ESE,106,8.0,14.0,52,0.00,,---,0.00,VWS V14.00,2013-04-12 17:59:00,
2013-04-12 13:00:00,77.0,58.6,29.88,ESE,104,12.0,14.0,53,0.00,,---,0.00,VWS V14.00,2013-04-12 18:00:00,
2013-04-12 13:01:00,77.2,57.7,29.88,ESE,106,12.0,12.0,51,0.00,,---,0.00,VWS V14.00,2013-04-12 18:01:00,
2013-04-12 13:02:00,77.1,57.0,29.88,ESE,105,12.0,14.0,50,0.00,,---,0.00,VWS V14.00,2013-04-12 18:02:00,
2013-04-12 13:03:00,77.0,58.6,29.88,ESE,103,12.0,14.0,53,0.00,,---,0.00,VWS V14.00,2013-04-12 18:03:00,
2013-04-12 13:05:00,77.0,57.5,29.88,East,86,8.0,11.0,51,0.00,,---,0.00,VWS V14.00,2013-04-12 18:05:00,
2013-04-12 13:06:00,77.3,58.3,29.88,East,85,5.0,10.0,52,0.00,,---,0.00,VWS V14.00,2013-04-12 18:06:00,
2013-04-12 13:07:00,77.0,57.5,29.88,East,85,8.0,8.0,51,0.00,,---,0.00,VWS V14.00,2013-04-12 18:07:00,
2013-04-12 13:10:00,77.5,57.4,29.88,ESE,110,11.0,15.0,50,0.00,,---,0.00,VWS V14.00,2013-04-12 18:10:00,
2013-04-12 13:15:00,77.7,57.6,29.88,ESE,103,11.0,11.0,50,0.00,,---,0.00,VWS V14.00,2013-04-12 18:15:00,
2013-04-12 13:20:00,78.2,56.9,29.87,ESE,103,11.0,14.0,48,0.00,,---,0.00,VWS V14.00,2013-04-12 18:20:00,
2013-04-12 13:26:00,77.9,57.2,29.87,East,96,9.0,12.0,49,0.00,,---,0.00,VWS V14.00,2013-04-12 18:26:00,
2013-04-12 14:19:00,79.0,55.9,29.86,ESE,122,9.0,14.0,45,0.00,,---,0.00,VWS V14.00,2013-04-12 19:19:00,
2013-04-12 14:20:00,78.6,54.9,29.85,ESE,122,11.0,16.0,44,0.00,,---,0.00,VWS V14.00,2013-04-12 19:20:00,
2013-04-12 14:21:00,78.5,55.4,29.85,ESE,117,16.0,16.0,45,0.00,,---,0.00,VWS V14.00,2013-04-12 19:21:00,
2013-04-12 14:22:00,78.7,55.6,29.85,ESE,116,9.0,16.0,45,0.00,,---,0.00,VWS V14.00,2013-04-12 19:22:00,
2013-04-12 14:26:00,80.1,58.7,29.85,ESE,109,18.0,21.0,48,0.00,,---,0.00,VWS V14.00,2013-04-12 19:26:00,
2013-04-12 14:31:00,80.0,56.2,29.85,East,86,8.0,12.0,44,0.00,,---,0.00,VWS V14.00,2013-04-12 19:31:00,
2013-04-12 14:36:00,79.4,56.2,29.84,ESE,105,13.0,15.0,45,0.00,,---,0.00,VWS V14.00,2013-04-12 19:36:00,
2013-04-12 14:41:00,79.3,54.9,29.84,East,99,11.0,12.0,43,0.00,,---,0.00,VWS V14.00,2013-04-12 19:41:00,
2013-04-12 14:46:00,79.6,55.2,29.84,ESE,104,12.0,15.0,43,0.00,,---,0.00,VWS V14.00,2013-04-12 19:46:00,
2013-04-12 14:52:00,79.4,54.3,29.84,East,82,15.0,21.0,42,0.00,,---,0.00,VWS V14.00,2013-04-12 19:52:00,
2013-04-12 14:57:00,79.9,55.4,29.84,East,94,15.0,19.0,43,0.00,,---,0.00,VWS V14.00,2013-04-12 19:57:00,
2013-04-12 15:02:00,79.3,54.9,29.84,East,101,15.0,16.0,43,0.00,,---,0.00,VWS V14.00,2013-04-12 20:02:00,
2013-04-12 15:07:00,79.7,55.9,29.83,ESE,118,16.0,22.0,44,0.00,,---,0.00,VWS V14.00,2013-04-12 20:07:00,
2013-04-12 15:12:00,79.1,53.4,29.83,ESE,105,14.0,21.0,41,0.00,,---,0.00,VWS V14.00,2013-04-12 20:12:00,
2013-04-12 15:17:00,79.4,55.6,29.83,ESE,111,11.0,14.0,44,0.00,,---,0.00,VWS V14.00,2013-04-12 20:17:00,
2013-04-12 15:22:00,79.3,56.1,29.82,ESE,117,18.0,19.0,45,0.00,,---,0.00,VWS V14.00,2013-04-12 20:22:00,
2013-04-12 15:27:00,78.9,54.5,29.82,East,98,18.0,22.0,43,0.00,,---,0.00,VWS V14.00,2013-04-12 20:27:00,
2013-04-12 15:32:00,78.7,55.6,29.82,ESE,103,15.0,15.0,45,0.00,,---,0.00,VWS V14.00,2013-04-12 20:32:00,
2013-04-12 15:37:00,79.1,53.4,29.82,SE,125,16.0,17.0,41,0.00,,---,0.00,VWS V14.00,2013-04-12 20:37:00,
2013-04-12 15:42:00,79.0,54.6,29.82,ESE,107,23.0,23.0,43,0.00,,---,0.00,VWS V14.00,2013-04-12 20:42:00,
2013-04-12 15:47:00,79.3,53.6,29.82,ESE,106,14.0,19.0,41,0.00,,---,0.00,VWS V14.00,2013-04-12 20:47:00,
2013-04-12 15:52:00,78.8,54.4,29.82,SE,131,17.0,19.0,43,0.00,,---,0.00,VWS V14.00,2013-04-12 20:52:00,
2013-04-12 15:57:00,78.8,53.1,29.82,East,95,15.0,18.0,41,0.00,,---,0.00,VWS V14.00,2013-04-12 20:57:00,
2013-04-12 16:02:00,79.1,53.4,29.82,ESE,109,14.0,18.0,41,0.00,,---,0.00,VWS V14.00,2013-04-12 21:02:00,
2013-04-12 16:07:00,78.3,54.6,29.82,ESE,110,15.0,15.0,44,0.00,,---,0.00,VWS V14.00,2013-04-12 21:07:00,
2013-04-12 16:12:00,78.9,54.5,29.82,ESE,105,13.0,16.0,43,0.00,,---,0.00,VWS V14.00,2013-04-12 21:12:00,
2013-04-12 16:17:00,78.9,54.5,29.82,East,98,18.0,21.0,43,0.00,,---,0.00,VWS V14.00,2013-04-12 21:17:00,
2013-04-12 16:22:00,78.7,56.8,29.81,ESE,103,15.0,16.0,47,0.00,,---,0.00,VWS V14.00,2013-04-12 21:22:00,
2013-04-12 16:27:00,79.0,57.7,29.81,ESE,104,18.0,20.0,48,0.00,,---,0.00,VWS V14.00,2013-04-12 21:27:00,
2013-04-12 16:32:00,78.6,52.3,29.81,East,87,15.0,18.0,40,0.00,,---,0.00,VWS V14.00,2013-04-12 21:32:00,
2013-04-12 16:37:00,79.1,52.7,29.81,East,93,14.0,18.0,40,0.00,,---,0.00,VWS V14.00,2013-04-12 21:37:00,
2013-04-12 16:42:00,79.1,52.0,29.80,East,89,15.0,22.0,39,0.00,,---,0.00,VWS V14.00,2013-04-12 21:42:00,
2013-04-12 16:47:00,78.7,51.7,29.80,ESE,107,14.0,16.0,39,0.00,,---,0.00,VWS V14.00,2013-04-12 21:47:00,
2013-04-12 16:52:00,78.4,53.4,29.80,ESE,110,11.0,19.0,42,0.00,,---,0.00,VWS V14.00,2013-04-12 21:52:00,
2013-04-12 16:57:00,78.4,52.8,29.80,ESE,104,14.0,16.0,41,0.00,,---,0.00,VWS V14.00,2013-04-12 21:57:00,
2013-04-12 17:02:00,78.4,52.1,29.80,East,96,18.0,20.0,40,0.00,,---,0.00,VWS V14.00,2013-04-12 22:02:00,
2013-04-12 17:07:00,78.8,52.5,29.80,ESE,105,11.0,18.0,40,0.00,,---,0.00,VWS V14.00,2013-04-12 22:07:00,
2013-04-12 17:12:00,78.5,52.9,29.80,ESE,103,13.0,18.0,41,0.00,,---,0.00,VWS V14.00,2013-04-12 22:12:00,
2013-04-12 17:17:00,78.2,53.2,29.80,East,101,15.0,18.0,42,0.00,,---,0.00,VWS V14.00,2013-04-12 22:17:00,
2013-04-12 17:22:00,77.8,53.5,29.80,ESE,102,19.0,19.0,43,0.00,,---,0.00,VWS V14.00,2013-04-12 22:22:00,
2013-04-12 17:27:00,77.7,51.5,29.80,East,96,13.0,21.0,40,0.00,,---,0.00,VWS V14.00,2013-04-12 22:27:00,
2013-04-12 17:32:00,77.2,49.7,29.80,East,101,15.0,21.0,38,0.00,,---,0.00,VWS V14.00,2013-04-12 22:32:00,
2013-04-12 17:37:00,77.5,54.5,29.80,ESE,115,16.0,19.0,45,0.00,,---,0.00,VWS V14.00,2013-04-12 22:37:00,
2013-04-12 17:42:00,76.9,55.7,29.80,ESE,108,16.0,16.0,48,0.00,,---,0.00,VWS V14.00,2013-04-12 22:42:00,
2013-04-12 17:47:00,76.1,58.3,29.80,SE,130,15.0,20.0,54,0.00,,---,0.00,VWS V14.00,2013-04-12 22:47:00,
2013-04-12 17:52:00,75.6,58.8,29.80,SE,138,14.0,15.0,56,0.00,,---,0.00,VWS V14.00,2013-04-12 22:52:00,
2013-04-12 17:57:00,75.8,59.0,29.80,ESE,122,12.0,20.0,56,0.00,,---,0.00,VWS V14.00,2013-04-12 22:57:00,
2013-04-12 18:02:00,75.1,59.3,29.80,SE,135,17.0,17.0,58,0.00,,---,0.00,VWS V14.00,2013-04-12 23:02:00,
2013-04-12 18:07:00,74.8,59.0,29.81,ESE,123,15.0,19.0,58,0.00,,---,0.00,VWS V14.00,2013-04-12 23:07:00,
2013-04-12 18:12:00,74.4,59.6,29.81,SE,138,18.0,18.0,60,0.00,,---,0.00,VWS V14.00,2013-04-12 23:12:00,
2013-04-12 18:17:00,74.3,59.5,29.81,SE,140,13.0,13.0,60,0.00,,---,0.00,VWS V14.00,2013-04-12 23:17:00,
2013-04-12 18:22:00,74.1,59.3,29.81,ESE,119,16.0,16.0,60,0.00,,---,0.00,VWS V14.00,2013-04-12 23:22:00,
2013-04-12 18:27:00,73.5,58.3,29.81,SE,126,20.0,20.0,59,0.00,,---,0.00,VWS V14.00,2013-04-12 23:27:00,
2013-04-12 18:32:00,73.2,58.0,29.81,SE,130,17.0,17.0,59,0.00,,---,0.00,VWS V14.00,2013-04-12 23:32:00,
2013-04-12 18:37:00,72.9,57.8,29.81,ESE,117,18.0,18.0,59,0.00,,---,0.00,VWS V14.00,2013-04-12 23:37:00,
2013-04-12 18:42:00,72.8,57.7,29.81,ESE,113,18.0,18.0,59,0.00,,---,0.00,VWS V14.00,2013-04-12 23:42:00,
2013-04-12 18:47:00,72.5,57.8,29.81,ESE,123,15.0,15.0,60,0.00,,---,0.00,VWS V14.00,2013-04-12 23:47:00,
2013-04-12 18:52:00,72.8,58.6,29.81,ESE,107,15.0,19.0,61,0.00,,---,0.00,VWS V14.00,2013-04-12 23:52:00,
2013-04-12 18:57:00,72.8,58.1,29.81,ESE,123,16.0,17.0,60,0.00,,---,0.00,VWS V14.00,2013-04-12 23:57:00,
2013-04-12 19:02:00,72.7,58.0,29.81,ESE,115,14.0,16.0,60,0.00,,---,0.00,VWS V14.00,2013-04-13 00:02:00,
2013-04-12 19:07:00,72.1,57.5,29.82,ESE,115,14.0,18.0,60,0.00,,---,0.00,VWS V14.00,2013-04-13 00:07:00,
2013-04-12 19:12:00,71.9,57.7,29.82,SE,125,16.0,17.0,61,0.00,,---,0.00,VWS V14.00,2013-04-13 00:12:00,
2013-04-12 19:17:00,71.7,57.5,29.82,SE,132,15.0,18.0,61,0.00,,---,0.00,VWS V14.00,2013-04-13 00:17:00,
2013-04-12 19:22:00,71.3,57.6,29.82,ESE,112,12.0,14.0,62,0.00,,---,0.00,VWS V14.00,2013-04-13 00:22:00,
2013-04-12 19:27:00,71.0,57.8,29.82,SE,126,12.0,18.0,63,0.00,,---,0.00,VWS V14.00,2013-04-13 00:27:00,
2013-04-12 19:32:00,70.8,58.0,29.82,ESE,119,16.0,18.0,64,0.00,,---,0.00,VWS V14.00,2013-04-13 00:32:00,
2013-04-12 19:37:00,70.5,57.8,29.82,ESE,119,16.0,19.0,64,0.00,,---,0.00,VWS V14.00,2013-04-13 00:37:00,
2013-04-12 19:42:00,70.2,57.0,29.82,ESE,120,12.0,15.0,63,0.00,,---,0.00,VWS V14.00,2013-04-13 00:42:00,
2013-04-12 19:47:00,69.9,57.6,29.82,ESE,119,16.0,16.0,65,0.00,,---,0.00,VWS V14.00,2013-04-13 00:47:00,
2013-04-12 19:52:00,69.7,57.4,29.82,ESE,117,16.0,16.0,65,0.00,,---,0.00,VWS V14.00,2013-04-13 00:52:00,
2013-04-12 19:57:00,69.4,58.0,29.82,ESE,117,13.0,15.0,67,0.00,,---,0.00,VWS V14.00,2013-04-13 00:57:00,
2013-04-12 20:02:00,69.2,58.6,29.82,ESE,107,13.0,15.0,69,0.00,,---,0.00,VWS V14.00,2013-04-13 01:02:00,
2013-04-12 20:07:00,69.0,58.8,29.82,ESE,119,13.0,15.0,70,0.00,,---,0.00,VWS V14.00,2013-04-13 01:07:00,
2013-04-12 20:12:00,68.8,59.0,29.83,ESE,119,7.0,13.0,71,0.00,,---,0.00,VWS V14.00,2013-04-13 01:12:00,
2013-04-12 20:17:00,68.6,59.2,29.83,ESE,115,13.0,13.0,72,0.00,,---,0.00,VWS V14.00,2013-04-13 01:17:00,
2013-04-12 20:22:00,68.5,59.1,29.83,ESE,115,11.0,11.0,72,0.00,,---,0.00,VWS V14.00,2013-04-13 01:22:00,
2013-04-12 20:27:00,68.2,59.2,29.83,ESE,116,7.0,11.0,73,0.00,,---,0.00,VWS V14.00,2013-04-13 01:27:00,
2013-04-12 20:32:00,68.0,59.0,29.83,ESE,117,8.0,8.0,73,0.00,,---,0.00,VWS V14.00,2013-04-13 01:32:00,
2013-04-12 20:37:00,67.8,59.2,29.83,ESE,117,9.0,11.0,74,0.00,,---,0.00,VWS V14.00,2013-04-13 01:37:00,
2013-04-12 20:42:00,67.6,59.0,29.83,ESE,117,8.0,9.0,74,0.00,,---,0.00,VWS V14.00,2013-04-13 01:42:00,
2013-04-12 20:47:00,67.4,58.8,29.83,ESE,117,6.0,7.0,74,0.00,,---,0.00,VWS V14.00,2013-04-13 01:47:00,
2013-04-12 20:52:00,67.3,58.7,29.84,ESE,117,7.0,8.0,74,0.00,,---,0.00,VWS V14.00,2013-04-13 01:52:00,
2013-04-12 20:57:00,67.0,58.5,29.84,ESE,117,7.0,7.0,74,0.00,,---,0.00,VWS V14.00,2013-04-13 01:57:00,
2013-04-12 21:02:00,66.9,58.7,29.84,ESE,117,7.0,8.0,75,0.00,,---,0.00,VWS V14.00,2013-04-13 02:02:00,
2013-04-12 21:07:00,67.0,58.8,29.84,ESE,117,7.0,8.0,75,0.00,,---,0.00,VWS V14.00,2013-04-13 02:07:00,
2013-04-12 21:13:00,66.9,58.7,29.84,ESE,117,8.0,8.0,75,0.00,,---,0.00,VWS V14.00,2013-04-13 02:13:00,
2013-04-12 21:18:00,66.9,59.1,29.85,ESE,118,8.0,12.0,76,0.00,,---,0.00,VWS V14.00,2013-04-13 02:18:00,
2013-04-12 21:23:00,66.8,59.0,29.85,ESE,118,9.0,9.0,76,0.00,,---,0.00,VWS V14.00,2013-04-13 02:23:00,
2013-04-12 21:28:00,66.7,59.3,29.85,ESE,118,8.0,11.0,77,0.00,,---,0.00,VWS V14.00,2013-04-13 02:28:00,
2013-04-12 21:33:00,66.7,59.3,29.85,ESE,119,11.0,11.0,77,0.00,,---,0.00,VWS V14.00,2013-04-13 02:33:00,
2013-04-12 21:38:00,66.6,59.2,29.86,ESE,119,8.0,9.0,77,0.00,,---,0.00,VWS V14.00,2013-04-13 02:38:00,
2013-04-12 21:43:00,66.5,59.4,29.86,ESE,119,8.0,11.0,78,0.00,,---,0.00,VWS V14.00,2013-04-13 02:43:00,
2013-04-12 21:48:00,66.5,59.8,29.86,ESE,120,6.0,9.0,79,0.00,,---,0.00,VWS V14.00,2013-04-13 02:48:00,
2013-04-12 21:53:00,66.6,59.9,29.86,SE,126,12.0,14.0,79,0.00,,---,0.00,VWS V14.00,2013-04-13 02:53:00,
2013-04-12 21:58:00,66.6,59.9,29.86,SE,125,9.0,12.0,79,0.00,,---,0.00,VWS V14.00,2013-04-13 02:58:00,
2013-04-12 22:03:00,66.4,59.7,29.86,ESE,123,11.0,12.0,79,0.00,,---,0.00,VWS V14.00,2013-04-13 03:03:00,
2013-04-12 22:08:00,66.2,59.9,29.86,ESE,123,9.0,9.0,80,0.00,,---,0.00,VWS V14.00,2013-04-13 03:08:00,
2013-04-12 22:13:00,66.1,59.8,29.87,SE,124,9.0,9.0,80,0.00,,---,0.00,VWS V14.00,2013-04-13 03:13:00,
2013-04-12 22:18:00,66.1,59.8,29.87,ESE,122,8.0,11.0,80,0.00,,---,0.00,VWS V14.00,2013-04-13 03:18:00,
2013-04-12 22:23:00,66.0,60.0,29.87,ESE,122,8.0,11.0,81,0.00,,---,0.00,VWS V14.00,2013-04-13 03:23:00,
2013-04-12 22:28:00,66.0,60.0,29.87,ESE,122,7.0,11.0,81,0.00,,---,0.00,VWS V14.00,2013-04-13 03:28:00,
2013-04-12 22:33:00,65.7,59.7,29.87,ESE,123,9.0,9.0,81,0.00,,---,0.00,VWS V14.00,2013-04-13 03:33:00,
2013-04-12 22:38:00,65.6,60.0,29.87,ESE,123,8.0,9.0,82,0.00,,---,0.00,VWS V14.00,2013-04-13 03:38:00,
2013-04-12 22:43:00,65.5,59.9,29.87,ESE,123,9.0,9.0,82,0.00,,---,0.00,VWS V14.00,2013-04-13 03:43:00,
2013-04-12 22:48:00,65.3,59.7,29.87,ESE,123,8.0,9.0,82,0.00,,---,0.00,VWS V14.00,2013-04-13 03:48:00,
2013-04-12 22:53:00,65.5,59.9,29.88,SE,126,8.0,9.0,82,0.00,,---,0.00,VWS V14.00,2013-04-13 03:53:00,
2013-04-12 22:58:00,65.6,60.3,29.88,SE,126,8.0,11.0,83,0.00,,---,0.00,VWS V14.00,2013-04-13 03:58:00,
2013-04-12 23:00:00,65.7,60.4,29.88,SE,126,8.0,8.0,83,0.00,,---,0.00,VWS V14.00,2013-04-13 04:00:00,
2013-04-12 23:05:00,65.7,60.4,29.88,SE,126,9.0,11.0,83,0.00,,---,0.00,VWS V14.00,2013-04-13 04:05:00,
2013-04-12 23:10:00,65.5,60.2,29.89,SE,126,9.0,9.0,83,0.00,,---,0.00,VWS V14.00,2013-04-13 04:10:00,
2013-04-12 23:15:00,65.6,60.3,29.88,SE,127,8.0,9.0,83,0.00,,---,0.00,VWS V14.00,2013-04-13 04:15:00,
2013-04-12 23:20:00,65.7,60.4,29.88,SE,127,7.0,11.0,83,0.00,,---,0.00,VWS V14.00,2013-04-13 04:20:00,
2013-04-12 23:25:00,65.6,60.3,29.88,SE,127,7.0,11.0,83,0.00,,---,0.00,VWS V14.00,2013-04-13 04:25:00,
2013-04-12 23:30:00,65.6,60.3,29.88,SE,127,8.0,12.0,83,0.00,,---,0.00,VWS V14.00,2013-04-13 04:30:00,
2013-04-12 23:35:00,65.7,60.4,29.89,SE,130,9.0,13.0,83,0.00,,---,0.00,VWS V14.00,2013-04-13 04:35:00,
2013-04-12 23:40:00,65.7,60.4,29.88,SE,130,8.0,11.0,83,0.00,,---,0.00,VWS V14.00,2013-04-13 04:40:00,
2013-04-12 23:45:00,65.7,60.4,29.88,SE,130,6.0,9.0,83,0.00,,---,0.00,VWS V14.00,2013-04-13 04:45:00,
2013-04-12 23:50:00,65.5,60.2,29.88,SE,130,8.0,8.0,83,0.00,,---,0.00,VWS V14.00,2013-04-13 04:50:00,
2013-04-12 23:55:00,65.5,60.5,29.89,SE,130,7.0,8.0,84,0.00,,---,0.00,VWS V14.00,2013-04-13 04:55:00,